<?xml version="1.0" encoding="UTF-8" standalone="no" ?>
<gpx xmlns="http://www.topografix.com/GPX/1/1" xmlns:xsi="http://www.w3.org/2001/XMLSchema-instance" xsi:schemaLocation="http://www.topografix.com/GPX/1/1 http://www.topografix.com/GPX/1/1/gpx.xsd" version="1.1" creator="VisuGPX - https://www.visugpx.com">
  <metadata>
    <name>Lourmarin-La tour Philippe</name>
    <desc><![CDATA[Lourmarin-La tour Philippe. grande boucle à l'intérieur du "petit luberon". magique]]></desc>
  </metadata>
  <trk>
    <name><![CDATA[lourmarin gd tour ]]></name>
    <trkseg>
      <trkpt lat="43.76942" lon="5.34687">
        <ele>227.302917</ele>
        <time>2019-02-22T09:04:49Z</time>
      </trkpt>
      <trkpt lat="43.76954" lon="5.34672">
        <ele>229.892242</ele>
        <time>2019-02-22T09:05:05Z</time>
      </trkpt>
      <trkpt lat="43.76963" lon="5.34659">
        <ele>232.170547</ele>
        <time>2019-02-22T09:05:22Z</time>
      </trkpt>
      <trkpt lat="43.76975" lon="5.34644">
        <ele>234.736221</ele>
        <time>2019-02-22T09:05:38Z</time>
      </trkpt>
      <trkpt lat="43.76985" lon="5.3463">
        <ele>237.048904</ele>
        <time>2019-02-22T09:05:56Z</time>
      </trkpt>
      <trkpt lat="43.76998" lon="5.34626">
        <ele>239.115982</ele>
        <time>2019-02-22T09:06:13Z</time>
      </trkpt>
      <trkpt lat="43.77011" lon="5.34635">
        <ele>239.983154</ele>
        <time>2019-02-22T09:06:35Z</time>
      </trkpt>
      <trkpt lat="43.77025" lon="5.34643">
        <ele>240.945312</ele>
        <time>2019-02-22T09:06:50Z</time>
      </trkpt>
      <trkpt lat="43.77038" lon="5.34642">
        <ele>242.815643</ele>
        <time>2019-02-22T09:07:13Z</time>
      </trkpt>
      <trkpt lat="43.77052" lon="5.34635">
        <ele>245.209686</ele>
        <time>2019-02-22T09:07:43Z</time>
      </trkpt>
      <trkpt lat="43.7706" lon="5.34619">
        <ele>248.089783</ele>
        <time>2019-02-22T09:08:00Z</time>
      </trkpt>
      <trkpt lat="43.77067" lon="5.34602">
        <ele>251.073532</ele>
        <time>2019-02-22T09:08:20Z</time>
      </trkpt>
      <trkpt lat="43.77077" lon="5.3459">
        <ele>254.151337</ele>
        <time>2019-02-22T09:08:42Z</time>
      </trkpt>
      <trkpt lat="43.77084" lon="5.34574">
        <ele>256.776001</ele>
        <time>2019-02-22T09:09:07Z</time>
      </trkpt>
      <trkpt lat="43.77097" lon="5.34564">
        <ele>259.868591</ele>
        <time>2019-02-22T09:09:22Z</time>
      </trkpt>
      <trkpt lat="43.77121" lon="5.34564">
        <ele>264.507843</ele>
        <time>2019-02-22T09:09:38Z</time>
      </trkpt>
      <trkpt lat="43.77145" lon="5.3456">
        <ele>269.433533</ele>
        <time>2019-02-22T09:09:54Z</time>
      </trkpt>
      <trkpt lat="43.77158" lon="5.34555">
        <ele>272.454529</ele>
        <time>2019-02-22T09:10:18Z</time>
      </trkpt>
      <trkpt lat="43.7717" lon="5.34545">
        <ele>276.049072</ele>
        <time>2019-02-22T09:10:38Z</time>
      </trkpt>
      <trkpt lat="43.77168" lon="5.34564">
        <ele>273.364197</ele>
        <time>2019-02-22T09:11:04Z</time>
      </trkpt>
      <trkpt lat="43.77164" lon="5.34586">
        <ele>270.414795</ele>
        <time>2019-02-22T09:11:19Z</time>
      </trkpt>
      <trkpt lat="43.7716" lon="5.34611">
        <ele>268.573822</ele>
        <time>2019-02-22T09:11:34Z</time>
      </trkpt>
      <trkpt lat="43.77158" lon="5.34641">
        <ele>266.760468</ele>
        <time>2019-02-22T09:11:50Z</time>
      </trkpt>
      <trkpt lat="43.77167" lon="5.34666">
        <ele>268.279022</ele>
        <time>2019-02-22T09:12:06Z</time>
      </trkpt>
      <trkpt lat="43.77171" lon="5.34684">
        <ele>268.59787</ele>
        <time>2019-02-22T09:12:26Z</time>
      </trkpt>
      <trkpt lat="43.7719" lon="5.34683">
        <ele>275.9823</ele>
        <time>2019-02-22T09:12:42Z</time>
      </trkpt>
      <trkpt lat="43.77204" lon="5.34687">
        <ele>280.989288</ele>
        <time>2019-02-22T09:13:05Z</time>
      </trkpt>
      <trkpt lat="43.77212" lon="5.34703">
        <ele>282.899353</ele>
        <time>2019-02-22T09:13:22Z</time>
      </trkpt>
      <trkpt lat="43.77209" lon="5.34722">
        <ele>280.55957</ele>
        <time>2019-02-22T09:13:38Z</time>
      </trkpt>
      <trkpt lat="43.77207" lon="5.34742">
        <ele>278.331177</ele>
        <time>2019-02-22T09:13:53Z</time>
      </trkpt>
      <trkpt lat="43.77207" lon="5.34766">
        <ele>276.567627</ele>
        <time>2019-02-22T09:14:09Z</time>
      </trkpt>
      <trkpt lat="43.77213" lon="5.34784">
        <ele>276.937378</ele>
        <time>2019-02-22T09:14:26Z</time>
      </trkpt>
      <trkpt lat="43.77219" lon="5.34801">
        <ele>277.402954</ele>
        <time>2019-02-22T09:14:43Z</time>
      </trkpt>
      <trkpt lat="43.77231" lon="5.3481">
        <ele>280.622894</ele>
        <time>2019-02-22T09:14:59Z</time>
      </trkpt>
      <trkpt lat="43.77244" lon="5.34814">
        <ele>284.477478</ele>
        <time>2019-02-22T09:15:20Z</time>
      </trkpt>
      <trkpt lat="43.77258" lon="5.34818">
        <ele>287.431458</ele>
        <time>2019-02-22T09:15:37Z</time>
      </trkpt>
      <trkpt lat="43.77273" lon="5.34817">
        <ele>290.413757</ele>
        <time>2019-02-22T09:15:56Z</time>
      </trkpt>
      <trkpt lat="43.77291" lon="5.34822">
        <ele>293.249329</ele>
        <time>2019-02-22T09:16:12Z</time>
      </trkpt>
      <trkpt lat="43.77303" lon="5.34831">
        <ele>294.04718</ele>
        <time>2019-02-22T09:16:29Z</time>
      </trkpt>
      <trkpt lat="43.77314" lon="5.34844">
        <ele>293.990967</ele>
        <time>2019-02-22T09:16:47Z</time>
      </trkpt>
      <trkpt lat="43.77325" lon="5.34854">
        <ele>294.956146</ele>
        <time>2019-02-22T09:17:02Z</time>
      </trkpt>
      <trkpt lat="43.7734" lon="5.34852">
        <ele>298.124512</ele>
        <time>2019-02-22T09:17:17Z</time>
      </trkpt>
      <trkpt lat="43.77349" lon="5.34836">
        <ele>301.013947</ele>
        <time>2019-02-22T09:17:35Z</time>
      </trkpt>
      <trkpt lat="43.77359" lon="5.34821">
        <ele>304.573059</ele>
        <time>2019-02-22T09:17:53Z</time>
      </trkpt>
      <trkpt lat="43.7737" lon="5.34808">
        <ele>307.841003</ele>
        <time>2019-02-22T09:18:09Z</time>
      </trkpt>
      <trkpt lat="43.77383" lon="5.34792">
        <ele>310.577271</ele>
        <time>2019-02-22T09:18:25Z</time>
      </trkpt>
      <trkpt lat="43.77398" lon="5.34776">
        <ele>312.680603</ele>
        <time>2019-02-22T09:18:40Z</time>
      </trkpt>
      <trkpt lat="43.7741" lon="5.34762">
        <ele>313.64389</ele>
        <time>2019-02-22T09:18:56Z</time>
      </trkpt>
      <trkpt lat="43.77423" lon="5.3475">
        <ele>315.97406</ele>
        <time>2019-02-22T09:19:11Z</time>
      </trkpt>
      <trkpt lat="43.7743" lon="5.34732">
        <ele>320.423157</ele>
        <time>2019-02-22T09:19:27Z</time>
      </trkpt>
      <trkpt lat="43.7743" lon="5.34713">
        <ele>323.268494</ele>
        <time>2019-02-22T09:19:44Z</time>
      </trkpt>
      <trkpt lat="43.77428" lon="5.34693">
        <ele>325.559204</ele>
        <time>2019-02-22T09:20:01Z</time>
      </trkpt>
      <trkpt lat="43.77435" lon="5.34676">
        <ele>329.443604</ele>
        <time>2019-02-22T09:20:17Z</time>
      </trkpt>
      <trkpt lat="43.77439" lon="5.34658">
        <ele>332.14035</ele>
        <time>2019-02-22T09:20:32Z</time>
      </trkpt>
      <trkpt lat="43.77442" lon="5.34638">
        <ele>334.064148</ele>
        <time>2019-02-22T09:20:49Z</time>
      </trkpt>
      <trkpt lat="43.7745" lon="5.34617">
        <ele>336.57782</ele>
        <time>2019-02-22T09:21:05Z</time>
      </trkpt>
      <trkpt lat="43.77457" lon="5.34601">
        <ele>338.128113</ele>
        <time>2019-02-22T09:21:26Z</time>
      </trkpt>
      <trkpt lat="43.77464" lon="5.34582">
        <ele>339.528137</ele>
        <time>2019-02-22T09:21:41Z</time>
      </trkpt>
      <trkpt lat="43.77474" lon="5.34567">
        <ele>341.216248</ele>
        <time>2019-02-22T09:21:57Z</time>
      </trkpt>
      <trkpt lat="43.77488" lon="5.3456">
        <ele>342.297302</ele>
        <time>2019-02-22T09:22:12Z</time>
      </trkpt>
      <trkpt lat="43.77482" lon="5.34528">
        <ele>343.852722</ele>
        <time>2019-02-22T09:22:28Z</time>
      </trkpt>
      <trkpt lat="43.77488" lon="5.3451">
        <ele>344.773621</ele>
        <time>2019-02-22T09:22:46Z</time>
      </trkpt>
      <trkpt lat="43.77489" lon="5.34489">
        <ele>345.868225</ele>
        <time>2019-02-22T09:23:01Z</time>
      </trkpt>
      <trkpt lat="43.77492" lon="5.3447">
        <ele>346.823883</ele>
        <time>2019-02-22T09:23:20Z</time>
      </trkpt>
      <trkpt lat="43.77494" lon="5.34448">
        <ele>347.94458</ele>
        <time>2019-02-22T09:23:35Z</time>
      </trkpt>
      <trkpt lat="43.77497" lon="5.34426">
        <ele>348.855927</ele>
        <time>2019-02-22T09:23:51Z</time>
      </trkpt>
      <trkpt lat="43.77493" lon="5.34401">
        <ele>350.731628</ele>
        <time>2019-02-22T09:24:06Z</time>
      </trkpt>
      <trkpt lat="43.77502" lon="5.34386">
        <ele>351.485504</ele>
        <time>2019-02-22T09:24:22Z</time>
      </trkpt>
      <trkpt lat="43.77501" lon="5.34366">
        <ele>352.373352</ele>
        <time>2019-02-22T09:24:44Z</time>
      </trkpt>
      <trkpt lat="43.77498" lon="5.34341">
        <ele>353.901794</ele>
        <time>2019-02-22T09:24:59Z</time>
      </trkpt>
      <trkpt lat="43.77491" lon="5.34322">
        <ele>356.858093</ele>
        <time>2019-02-22T09:25:15Z</time>
      </trkpt>
      <trkpt lat="43.77487" lon="5.34294">
        <ele>360.847107</ele>
        <time>2019-02-22T09:25:31Z</time>
      </trkpt>
      <trkpt lat="43.77489" lon="5.34274">
        <ele>363.11676</ele>
        <time>2019-02-22T09:25:55Z</time>
      </trkpt>
      <trkpt lat="43.77495" lon="5.34257">
        <ele>364.720154</ele>
        <time>2019-02-22T09:26:14Z</time>
      </trkpt>
      <trkpt lat="43.77492" lon="5.34237">
        <ele>367.508484</ele>
        <time>2019-02-22T09:26:29Z</time>
      </trkpt>
      <trkpt lat="43.77506" lon="5.34232">
        <ele>369.138245</ele>
        <time>2019-02-22T09:26:47Z</time>
      </trkpt>
      <trkpt lat="43.77511" lon="5.34214">
        <ele>372.618835</ele>
        <time>2019-02-22T09:27:04Z</time>
      </trkpt>
      <trkpt lat="43.77516" lon="5.34196">
        <ele>376.022949</ele>
        <time>2019-02-22T09:27:24Z</time>
      </trkpt>
      <trkpt lat="43.77525" lon="5.34181">
        <ele>379.340088</ele>
        <time>2019-02-22T09:27:44Z</time>
      </trkpt>
      <trkpt lat="43.77532" lon="5.34163">
        <ele>382.276398</ele>
        <time>2019-02-22T09:28:00Z</time>
      </trkpt>
      <trkpt lat="43.77538" lon="5.34146">
        <ele>384.391815</ele>
        <time>2019-02-22T09:28:17Z</time>
      </trkpt>
      <trkpt lat="43.77547" lon="5.34128">
        <ele>386.139923</ele>
        <time>2019-02-22T09:28:33Z</time>
      </trkpt>
      <trkpt lat="43.77563" lon="5.34112">
        <ele>387.086151</ele>
        <time>2019-02-22T09:28:49Z</time>
      </trkpt>
      <trkpt lat="43.77563" lon="5.34093">
        <ele>387.167877</ele>
        <time>2019-02-22T09:29:10Z</time>
      </trkpt>
      <trkpt lat="43.77575" lon="5.34084">
        <ele>386.497772</ele>
        <time>2019-02-22T09:29:27Z</time>
      </trkpt>
      <trkpt lat="43.77587" lon="5.34068">
        <ele>389.708252</ele>
        <time>2019-02-22T09:29:43Z</time>
      </trkpt>
      <trkpt lat="43.77601" lon="5.34064">
        <ele>392.316772</ele>
        <time>2019-02-22T09:30:05Z</time>
      </trkpt>
      <trkpt lat="43.77622" lon="5.34052">
        <ele>396.211823</ele>
        <time>2019-02-22T09:30:21Z</time>
      </trkpt>
      <trkpt lat="43.77635" lon="5.34044">
        <ele>398.188049</ele>
        <time>2019-02-22T09:30:42Z</time>
      </trkpt>
      <trkpt lat="43.77649" lon="5.34041">
        <ele>399.368317</ele>
        <time>2019-02-22T09:31:00Z</time>
      </trkpt>
      <trkpt lat="43.77662" lon="5.34035">
        <ele>400.327667</ele>
        <time>2019-02-22T09:31:20Z</time>
      </trkpt>
      <trkpt lat="43.77676" lon="5.34033">
        <ele>401.324249</ele>
        <time>2019-02-22T09:31:37Z</time>
      </trkpt>
      <trkpt lat="43.77689" lon="5.3403">
        <ele>402.371826</ele>
        <time>2019-02-22T09:31:57Z</time>
      </trkpt>
      <trkpt lat="43.77703" lon="5.34029">
        <ele>403.434021</ele>
        <time>2019-02-22T09:32:14Z</time>
      </trkpt>
      <trkpt lat="43.77718" lon="5.34026">
        <ele>404.536438</ele>
        <time>2019-02-22T09:32:30Z</time>
      </trkpt>
      <trkpt lat="43.77733" lon="5.34021">
        <ele>405.488586</ele>
        <time>2019-02-22T09:32:45Z</time>
      </trkpt>
      <trkpt lat="43.77742" lon="5.33999">
        <ele>405.753906</ele>
        <time>2019-02-22T09:33:01Z</time>
      </trkpt>
      <trkpt lat="43.77752" lon="5.33986">
        <ele>408.974915</ele>
        <time>2019-02-22T09:33:20Z</time>
      </trkpt>
      <trkpt lat="43.77762" lon="5.33971">
        <ele>412.623657</ele>
        <time>2019-02-22T09:33:35Z</time>
      </trkpt>
      <trkpt lat="43.77775" lon="5.33961">
        <ele>414.891632</ele>
        <time>2019-02-22T09:33:51Z</time>
      </trkpt>
      <trkpt lat="43.77794" lon="5.33954">
        <ele>416.66864</ele>
        <time>2019-02-22T09:34:06Z</time>
      </trkpt>
      <trkpt lat="43.778" lon="5.33935">
        <ele>419.102478</ele>
        <time>2019-02-22T09:34:21Z</time>
      </trkpt>
      <trkpt lat="43.77804" lon="5.33914">
        <ele>421.476624</ele>
        <time>2019-02-22T09:34:41Z</time>
      </trkpt>
      <trkpt lat="43.77815" lon="5.33903">
        <ele>423.117584</ele>
        <time>2019-02-22T09:35:05Z</time>
      </trkpt>
      <trkpt lat="43.77822" lon="5.33884">
        <ele>425.832947</ele>
        <time>2019-02-22T09:35:20Z</time>
      </trkpt>
      <trkpt lat="43.77832" lon="5.33866">
        <ele>428.104004</ele>
        <time>2019-02-22T09:35:36Z</time>
      </trkpt>
      <trkpt lat="43.77837" lon="5.33847">
        <ele>430.471283</ele>
        <time>2019-02-22T09:35:58Z</time>
      </trkpt>
      <trkpt lat="43.77842" lon="5.33827">
        <ele>433.649261</ele>
        <time>2019-02-22T09:36:13Z</time>
      </trkpt>
      <trkpt lat="43.77856" lon="5.33823">
        <ele>433.448547</ele>
        <time>2019-02-22T09:36:35Z</time>
      </trkpt>
      <trkpt lat="43.7787" lon="5.33819">
        <ele>432.997223</ele>
        <time>2019-02-22T09:37:01Z</time>
      </trkpt>
      <trkpt lat="43.7788" lon="5.33807">
        <ele>435.104706</ele>
        <time>2019-02-22T09:37:24Z</time>
      </trkpt>
      <trkpt lat="43.77885" lon="5.33788">
        <ele>439.27063</ele>
        <time>2019-02-22T09:37:40Z</time>
      </trkpt>
      <trkpt lat="43.77892" lon="5.33769">
        <ele>443.471008</ele>
        <time>2019-02-22T09:37:56Z</time>
      </trkpt>
      <trkpt lat="43.77892" lon="5.33749">
        <ele>448.249878</ele>
        <time>2019-02-22T09:38:14Z</time>
      </trkpt>
      <trkpt lat="43.77906" lon="5.33745">
        <ele>447.829041</ele>
        <time>2019-02-22T09:38:31Z</time>
      </trkpt>
      <trkpt lat="43.77914" lon="5.3373">
        <ele>450.147522</ele>
        <time>2019-02-22T09:38:50Z</time>
      </trkpt>
      <trkpt lat="43.77917" lon="5.33711">
        <ele>453.459961</ele>
        <time>2019-02-22T09:39:05Z</time>
      </trkpt>
      <trkpt lat="43.77921" lon="5.33693">
        <ele>457.146088</ele>
        <time>2019-02-22T09:39:28Z</time>
      </trkpt>
      <trkpt lat="43.77925" lon="5.33674">
        <ele>460.920471</ele>
        <time>2019-02-22T09:39:45Z</time>
      </trkpt>
      <trkpt lat="43.77935" lon="5.33662">
        <ele>463.976257</ele>
        <time>2019-02-22T09:40:07Z</time>
      </trkpt>
      <trkpt lat="43.77945" lon="5.33648">
        <ele>467.202148</ele>
        <time>2019-02-22T09:40:22Z</time>
      </trkpt>
      <trkpt lat="43.77952" lon="5.33631">
        <ele>470.791473</ele>
        <time>2019-02-22T09:40:47Z</time>
      </trkpt>
      <trkpt lat="43.7796" lon="5.33615">
        <ele>473.933594</ele>
        <time>2019-02-22T09:41:06Z</time>
      </trkpt>
      <trkpt lat="43.77965" lon="5.33597">
        <ele>477.120789</ele>
        <time>2019-02-22T09:41:31Z</time>
      </trkpt>
      <trkpt lat="43.77976" lon="5.33583">
        <ele>479.274414</ele>
        <time>2019-02-22T09:41:59Z</time>
      </trkpt>
      <trkpt lat="43.77986" lon="5.3357">
        <ele>481.470215</ele>
        <time>2019-02-22T09:42:23Z</time>
      </trkpt>
      <trkpt lat="43.77995" lon="5.33556">
        <ele>483.976562</ele>
        <time>2019-02-22T09:42:53Z</time>
      </trkpt>
      <trkpt lat="43.78003" lon="5.3354">
        <ele>486.790741</ele>
        <time>2019-02-22T09:43:14Z</time>
      </trkpt>
      <trkpt lat="43.78016" lon="5.33534">
        <ele>488.129883</ele>
        <time>2019-02-22T09:43:46Z</time>
      </trkpt>
      <trkpt lat="43.78029" lon="5.33528">
        <ele>489.682861</ele>
        <time>2019-02-22T09:44:18Z</time>
      </trkpt>
      <trkpt lat="43.78041" lon="5.3352">
        <ele>491.62677</ele>
        <time>2019-02-22T09:44:42Z</time>
      </trkpt>
      <trkpt lat="43.78055" lon="5.33517">
        <ele>492.343323</ele>
        <time>2019-02-22T09:45:10Z</time>
      </trkpt>
      <trkpt lat="43.78067" lon="5.33508">
        <ele>494.708984</ele>
        <time>2019-02-22T09:45:30Z</time>
      </trkpt>
      <trkpt lat="43.78069" lon="5.33489">
        <ele>499.005096</ele>
        <time>2019-02-22T09:45:48Z</time>
      </trkpt>
      <trkpt lat="43.78063" lon="5.33472">
        <ele>502.743164</ele>
        <time>2019-02-22T09:46:15Z</time>
      </trkpt>
      <trkpt lat="43.78071" lon="5.33457">
        <ele>506.080414</ele>
        <time>2019-02-22T09:46:37Z</time>
      </trkpt>
      <trkpt lat="43.78071" lon="5.33438">
        <ele>510.25592</ele>
        <time>2019-02-22T09:47:07Z</time>
      </trkpt>
      <trkpt lat="43.7808" lon="5.33424">
        <ele>513.49231</ele>
        <time>2019-02-22T09:49:47Z</time>
      </trkpt>
      <trkpt lat="43.78087" lon="5.33408">
        <ele>515.547424</ele>
        <time>2019-02-22T09:50:11Z</time>
      </trkpt>
      <trkpt lat="43.78084" lon="5.33389">
        <ele>516.664368</ele>
        <time>2019-02-22T09:50:30Z</time>
      </trkpt>
      <trkpt lat="43.78083" lon="5.3337">
        <ele>517.726807</ele>
        <time>2019-02-22T09:50:52Z</time>
      </trkpt>
      <trkpt lat="43.78095" lon="5.33362">
        <ele>519.246033</ele>
        <time>2019-02-22T09:51:27Z</time>
      </trkpt>
      <trkpt lat="43.78102" lon="5.33345">
        <ele>521.315491</ele>
        <time>2019-02-22T09:51:47Z</time>
      </trkpt>
      <trkpt lat="43.78114" lon="5.33338">
        <ele>523.588318</ele>
        <time>2019-02-22T09:52:06Z</time>
      </trkpt>
      <trkpt lat="43.78127" lon="5.33332">
        <ele>525.508972</ele>
        <time>2019-02-22T09:52:22Z</time>
      </trkpt>
      <trkpt lat="43.78139" lon="5.33323">
        <ele>525.708069</ele>
        <time>2019-02-22T09:52:40Z</time>
      </trkpt>
      <trkpt lat="43.78152" lon="5.33317">
        <ele>526.682434</ele>
        <time>2019-02-22T09:52:57Z</time>
      </trkpt>
      <trkpt lat="43.78166" lon="5.33321">
        <ele>529.228088</ele>
        <time>2019-02-22T09:53:12Z</time>
      </trkpt>
      <trkpt lat="43.78181" lon="5.33326">
        <ele>529.607178</ele>
        <time>2019-02-22T09:53:28Z</time>
      </trkpt>
      <trkpt lat="43.78197" lon="5.33328">
        <ele>529.560425</ele>
        <time>2019-02-22T09:53:44Z</time>
      </trkpt>
      <trkpt lat="43.78215" lon="5.33324">
        <ele>528.515442</ele>
        <time>2019-02-22T09:53:59Z</time>
      </trkpt>
      <trkpt lat="43.78235" lon="5.3333">
        <ele>528.914673</ele>
        <time>2019-02-22T09:54:15Z</time>
      </trkpt>
      <trkpt lat="43.78251" lon="5.33329">
        <ele>528.539734</ele>
        <time>2019-02-22T09:54:30Z</time>
      </trkpt>
      <trkpt lat="43.78267" lon="5.33323">
        <ele>529.862</ele>
        <time>2019-02-22T09:54:45Z</time>
      </trkpt>
      <trkpt lat="43.7828" lon="5.3333">
        <ele>532.264893</ele>
        <time>2019-02-22T09:55:02Z</time>
      </trkpt>
      <trkpt lat="43.78293" lon="5.3333">
        <ele>533.967529</ele>
        <time>2019-02-22T09:55:19Z</time>
      </trkpt>
      <trkpt lat="43.78307" lon="5.33331">
        <ele>535.784363</ele>
        <time>2019-02-22T09:55:36Z</time>
      </trkpt>
      <trkpt lat="43.78321" lon="5.33331">
        <ele>537.497864</ele>
        <time>2019-02-22T09:55:53Z</time>
      </trkpt>
      <trkpt lat="43.78335" lon="5.33331">
        <ele>539.70697</ele>
        <time>2019-02-22T09:56:14Z</time>
      </trkpt>
      <trkpt lat="43.78348" lon="5.33337">
        <ele>543.663574</ele>
        <time>2019-02-22T09:56:35Z</time>
      </trkpt>
      <trkpt lat="43.78361" lon="5.33345">
        <ele>547.163025</ele>
        <time>2019-02-22T09:57:03Z</time>
      </trkpt>
      <trkpt lat="43.78375" lon="5.33346">
        <ele>551.486694</ele>
        <time>2019-02-22T09:57:28Z</time>
      </trkpt>
      <trkpt lat="43.78388" lon="5.33348">
        <ele>555.786194</ele>
        <time>2019-02-22T09:57:55Z</time>
      </trkpt>
      <trkpt lat="43.78401" lon="5.33341">
        <ele>560.894592</ele>
        <time>2019-02-22T09:58:26Z</time>
      </trkpt>
      <trkpt lat="43.78412" lon="5.3333">
        <ele>565.616821</ele>
        <time>2019-02-22T09:58:51Z</time>
      </trkpt>
      <trkpt lat="43.78423" lon="5.33318">
        <ele>568.655579</ele>
        <time>2019-02-22T09:59:23Z</time>
      </trkpt>
      <trkpt lat="43.78435" lon="5.3331">
        <ele>571.011169</ele>
        <time>2019-02-22T09:59:48Z</time>
      </trkpt>
      <trkpt lat="43.78448" lon="5.33305">
        <ele>573.424438</ele>
        <time>2019-02-22T10:00:22Z</time>
      </trkpt>
      <trkpt lat="43.78462" lon="5.33303">
        <ele>575.697449</ele>
        <time>2019-02-22T10:00:45Z</time>
      </trkpt>
      <trkpt lat="43.78476" lon="5.33303">
        <ele>577.966003</ele>
        <time>2019-02-22T10:01:15Z</time>
      </trkpt>
      <trkpt lat="43.78486" lon="5.33291">
        <ele>580.699219</ele>
        <time>2019-02-22T10:01:40Z</time>
      </trkpt>
      <trkpt lat="43.78495" lon="5.33276">
        <ele>583.591187</ele>
        <time>2019-02-22T10:01:59Z</time>
      </trkpt>
      <trkpt lat="43.78501" lon="5.33258">
        <ele>586.030701</ele>
        <time>2019-02-22T10:02:18Z</time>
      </trkpt>
      <trkpt lat="43.78503" lon="5.3324">
        <ele>587.432983</ele>
        <time>2019-02-22T10:02:36Z</time>
      </trkpt>
      <trkpt lat="43.785" lon="5.33221">
        <ele>589.729004</ele>
        <time>2019-02-22T10:02:52Z</time>
      </trkpt>
      <trkpt lat="43.78506" lon="5.33203">
        <ele>590.408997</ele>
        <time>2019-02-22T10:03:13Z</time>
      </trkpt>
      <trkpt lat="43.78511" lon="5.33185">
        <ele>591.346741</ele>
        <time>2019-02-22T10:03:30Z</time>
      </trkpt>
      <trkpt lat="43.78514" lon="5.33166">
        <ele>592.84314</ele>
        <time>2019-02-22T10:03:47Z</time>
      </trkpt>
      <trkpt lat="43.78518" lon="5.33147">
        <ele>591.978271</ele>
        <time>2019-02-22T10:04:07Z</time>
      </trkpt>
      <trkpt lat="43.78514" lon="5.33123">
        <ele>592.551025</ele>
        <time>2019-02-22T10:04:22Z</time>
      </trkpt>
      <trkpt lat="43.78509" lon="5.33098">
        <ele>593.635315</ele>
        <time>2019-02-22T10:04:37Z</time>
      </trkpt>
      <trkpt lat="43.785" lon="5.33076">
        <ele>595.481201</ele>
        <time>2019-02-22T10:04:52Z</time>
      </trkpt>
      <trkpt lat="43.78496" lon="5.33051">
        <ele>593.206909</ele>
        <time>2019-02-22T10:05:08Z</time>
      </trkpt>
      <trkpt lat="43.78494" lon="5.33031">
        <ele>591.615051</ele>
        <time>2019-02-22T10:05:23Z</time>
      </trkpt>
      <trkpt lat="43.78486" lon="5.33013">
        <ele>589.81958</ele>
        <time>2019-02-22T10:05:39Z</time>
      </trkpt>
      <trkpt lat="43.78481" lon="5.32996">
        <ele>589.186218</ele>
        <time>2019-02-22T10:05:55Z</time>
      </trkpt>
      <trkpt lat="43.78479" lon="5.32976">
        <ele>590.680725</ele>
        <time>2019-02-22T10:06:11Z</time>
      </trkpt>
      <trkpt lat="43.78489" lon="5.32962">
        <ele>592.016541</ele>
        <time>2019-02-22T10:06:33Z</time>
      </trkpt>
      <trkpt lat="43.78504" lon="5.32971">
        <ele>590.574585</ele>
        <time>2019-02-22T10:06:49Z</time>
      </trkpt>
      <trkpt lat="43.78515" lon="5.32983">
        <ele>586.608459</ele>
        <time>2019-02-22T10:07:11Z</time>
      </trkpt>
      <trkpt lat="43.78528" lon="5.32986">
        <ele>582.271179</ele>
        <time>2019-02-22T10:07:31Z</time>
      </trkpt>
      <trkpt lat="43.78542" lon="5.32989">
        <ele>577.596191</ele>
        <time>2019-02-22T10:08:03Z</time>
      </trkpt>
      <trkpt lat="43.78556" lon="5.32989">
        <ele>573.282593</ele>
        <time>2019-02-22T10:08:27Z</time>
      </trkpt>
      <trkpt lat="43.78569" lon="5.32984">
        <ele>569.880493</ele>
        <time>2019-02-22T10:08:50Z</time>
      </trkpt>
      <trkpt lat="43.78583" lon="5.3298">
        <ele>566.346252</ele>
        <time>2019-02-22T10:09:21Z</time>
      </trkpt>
      <trkpt lat="43.786" lon="5.32982">
        <ele>560.797119</ele>
        <time>2019-02-22T10:09:37Z</time>
      </trkpt>
      <trkpt lat="43.78614" lon="5.32993">
        <ele>554.660522</ele>
        <time>2019-02-22T10:09:52Z</time>
      </trkpt>
      <trkpt lat="43.78628" lon="5.32995">
        <ele>549.956177</ele>
        <time>2019-02-22T10:10:09Z</time>
      </trkpt>
      <trkpt lat="43.78643" lon="5.32998">
        <ele>544.881958</ele>
        <time>2019-02-22T10:10:46Z</time>
      </trkpt>
      <trkpt lat="43.78659" lon="5.32999">
        <ele>539.455933</ele>
        <time>2019-02-22T10:11:02Z</time>
      </trkpt>
      <trkpt lat="43.78673" lon="5.33005">
        <ele>535.617615</ele>
        <time>2019-02-22T10:11:18Z</time>
      </trkpt>
      <trkpt lat="43.78688" lon="5.33003">
        <ele>531.079346</ele>
        <time>2019-02-22T10:11:34Z</time>
      </trkpt>
      <trkpt lat="43.78701" lon="5.32999">
        <ele>526.825989</ele>
        <time>2019-02-22T10:11:50Z</time>
      </trkpt>
      <trkpt lat="43.78715" lon="5.32999">
        <ele>522.646423</ele>
        <time>2019-02-22T10:12:06Z</time>
      </trkpt>
      <trkpt lat="43.78732" lon="5.33004">
        <ele>518.111572</ele>
        <time>2019-02-22T10:12:22Z</time>
      </trkpt>
      <trkpt lat="43.78745" lon="5.32997">
        <ele>513.745422</ele>
        <time>2019-02-22T10:12:44Z</time>
      </trkpt>
      <trkpt lat="43.7876" lon="5.32997">
        <ele>510.088898</ele>
        <time>2019-02-22T10:13:00Z</time>
      </trkpt>
      <trkpt lat="43.78774" lon="5.32999">
        <ele>506.67926</ele>
        <time>2019-02-22T10:13:17Z</time>
      </trkpt>
      <trkpt lat="43.78787" lon="5.32995">
        <ele>503.653198</ele>
        <time>2019-02-22T10:13:50Z</time>
      </trkpt>
      <trkpt lat="43.78807" lon="5.32991">
        <ele>498.860718</ele>
        <time>2019-02-22T10:14:05Z</time>
      </trkpt>
      <trkpt lat="43.7882" lon="5.32984">
        <ele>495.470764</ele>
        <time>2019-02-22T10:14:21Z</time>
      </trkpt>
      <trkpt lat="43.78829" lon="5.3297">
        <ele>492.206085</ele>
        <time>2019-02-22T10:14:44Z</time>
      </trkpt>
      <trkpt lat="43.78841" lon="5.32962">
        <ele>489.512909</ele>
        <time>2019-02-22T10:14:59Z</time>
      </trkpt>
      <trkpt lat="43.78857" lon="5.32948">
        <ele>486.04422</ele>
        <time>2019-02-22T10:15:15Z</time>
      </trkpt>
      <trkpt lat="43.78873" lon="5.32932">
        <ele>481.04657</ele>
        <time>2019-02-22T10:15:31Z</time>
      </trkpt>
      <trkpt lat="43.78885" lon="5.32919">
        <ele>476.283844</ele>
        <time>2019-02-22T10:15:47Z</time>
      </trkpt>
      <trkpt lat="43.78898" lon="5.3291">
        <ele>473.516602</ele>
        <time>2019-02-22T10:16:09Z</time>
      </trkpt>
      <trkpt lat="43.78912" lon="5.32905">
        <ele>470.513306</ele>
        <time>2019-02-22T10:16:24Z</time>
      </trkpt>
      <trkpt lat="43.78924" lon="5.32896">
        <ele>467.886444</ele>
        <time>2019-02-22T10:16:52Z</time>
      </trkpt>
      <trkpt lat="43.78938" lon="5.32888">
        <ele>464.298828</ele>
        <time>2019-02-22T10:17:08Z</time>
      </trkpt>
      <trkpt lat="43.78955" lon="5.32883">
        <ele>459.500977</ele>
        <time>2019-02-22T10:17:24Z</time>
      </trkpt>
      <trkpt lat="43.78968" lon="5.32877">
        <ele>455.147552</ele>
        <time>2019-02-22T10:17:41Z</time>
      </trkpt>
      <trkpt lat="43.78981" lon="5.32868">
        <ele>449.713959</ele>
        <time>2019-02-22T10:17:57Z</time>
      </trkpt>
      <trkpt lat="43.7899" lon="5.32853">
        <ele>443.458466</ele>
        <time>2019-02-22T10:18:14Z</time>
      </trkpt>
      <trkpt lat="43.79002" lon="5.32841">
        <ele>436.489197</ele>
        <time>2019-02-22T10:18:35Z</time>
      </trkpt>
      <trkpt lat="43.79013" lon="5.3283">
        <ele>432.19635</ele>
        <time>2019-02-22T10:19:01Z</time>
      </trkpt>
      <trkpt lat="43.79026" lon="5.32823">
        <ele>429.22998</ele>
        <time>2019-02-22T10:19:20Z</time>
      </trkpt>
      <trkpt lat="43.7904" lon="5.32818">
        <ele>425.967957</ele>
        <time>2019-02-22T10:19:40Z</time>
      </trkpt>
      <trkpt lat="43.79049" lon="5.32804">
        <ele>423.043152</ele>
        <time>2019-02-22T10:20:01Z</time>
      </trkpt>
      <trkpt lat="43.79052" lon="5.32786">
        <ele>421.299744</ele>
        <time>2019-02-22T10:20:19Z</time>
      </trkpt>
      <trkpt lat="43.79063" lon="5.32772">
        <ele>416.859741</ele>
        <time>2019-02-22T10:20:35Z</time>
      </trkpt>
      <trkpt lat="43.79075" lon="5.32761">
        <ele>412.131958</ele>
        <time>2019-02-22T10:20:51Z</time>
      </trkpt>
      <trkpt lat="43.79091" lon="5.32761">
        <ele>408.426086</ele>
        <time>2019-02-22T10:21:06Z</time>
      </trkpt>
      <trkpt lat="43.79104" lon="5.32765">
        <ele>407.300323</ele>
        <time>2019-02-22T10:21:24Z</time>
      </trkpt>
      <trkpt lat="43.79122" lon="5.32777">
        <ele>405.319458</ele>
        <time>2019-02-22T10:21:40Z</time>
      </trkpt>
      <trkpt lat="43.79136" lon="5.32786">
        <ele>402.864288</ele>
        <time>2019-02-22T10:21:56Z</time>
      </trkpt>
      <trkpt lat="43.7915" lon="5.32799">
        <ele>399.585571</ele>
        <time>2019-02-22T10:22:12Z</time>
      </trkpt>
      <trkpt lat="43.79165" lon="5.32807">
        <ele>395.688782</ele>
        <time>2019-02-22T10:22:27Z</time>
      </trkpt>
      <trkpt lat="43.79187" lon="5.32806">
        <ele>389.134827</ele>
        <time>2019-02-22T10:22:43Z</time>
      </trkpt>
      <trkpt lat="43.792" lon="5.32807">
        <ele>384.835144</ele>
        <time>2019-02-22T10:22:59Z</time>
      </trkpt>
      <trkpt lat="43.79215" lon="5.32809">
        <ele>380.295776</ele>
        <time>2019-02-22T10:23:36Z</time>
      </trkpt>
      <trkpt lat="43.79233" lon="5.32802">
        <ele>375.839386</ele>
        <time>2019-02-22T10:23:51Z</time>
      </trkpt>
      <trkpt lat="43.7925" lon="5.32808">
        <ele>369.757843</ele>
        <time>2019-02-22T10:24:06Z</time>
      </trkpt>
      <trkpt lat="43.7927" lon="5.32806">
        <ele>366.474457</ele>
        <time>2019-02-22T10:24:21Z</time>
      </trkpt>
      <trkpt lat="43.79281" lon="5.32784">
        <ele>366.903564</ele>
        <time>2019-02-22T10:24:37Z</time>
      </trkpt>
      <trkpt lat="43.79283" lon="5.32759">
        <ele>369.031677</ele>
        <time>2019-02-22T10:24:52Z</time>
      </trkpt>
      <trkpt lat="43.79287" lon="5.32735">
        <ele>370.268982</ele>
        <time>2019-02-22T10:25:07Z</time>
      </trkpt>
      <trkpt lat="43.79297" lon="5.32717">
        <ele>369.107605</ele>
        <time>2019-02-22T10:25:22Z</time>
      </trkpt>
      <trkpt lat="43.79298" lon="5.32684">
        <ele>371.019897</ele>
        <time>2019-02-22T10:25:38Z</time>
      </trkpt>
      <trkpt lat="43.79311" lon="5.32661">
        <ele>369.875336</ele>
        <time>2019-02-22T10:25:54Z</time>
      </trkpt>
      <trkpt lat="43.7933" lon="5.32656">
        <ele>366.253448</ele>
        <time>2019-02-22T10:26:09Z</time>
      </trkpt>
      <trkpt lat="43.79345" lon="5.32661">
        <ele>364.500763</ele>
        <time>2019-02-22T10:26:25Z</time>
      </trkpt>
      <trkpt lat="43.79365" lon="5.3267">
        <ele>363.698669</ele>
        <time>2019-02-22T10:26:41Z</time>
      </trkpt>
      <trkpt lat="43.7938" lon="5.32669">
        <ele>364.114441</ele>
        <time>2019-02-22T10:26:57Z</time>
      </trkpt>
      <trkpt lat="43.79392" lon="5.32659">
        <ele>365.415802</ele>
        <time>2019-02-22T10:27:14Z</time>
      </trkpt>
      <trkpt lat="43.7941" lon="5.32636">
        <ele>367.722137</ele>
        <time>2019-02-22T10:27:30Z</time>
      </trkpt>
      <trkpt lat="43.7942" lon="5.3262">
        <ele>369.452484</ele>
        <time>2019-02-22T10:27:46Z</time>
      </trkpt>
      <trkpt lat="43.79439" lon="5.32612">
        <ele>373.194183</ele>
        <time>2019-02-22T10:28:02Z</time>
      </trkpt>
      <trkpt lat="43.79455" lon="5.32612">
        <ele>375.926605</ele>
        <time>2019-02-22T10:28:17Z</time>
      </trkpt>
      <trkpt lat="43.79457" lon="5.32591">
        <ele>377.457397</ele>
        <time>2019-02-22T10:28:32Z</time>
      </trkpt>
      <trkpt lat="43.79461" lon="5.32571">
        <ele>379.977112</ele>
        <time>2019-02-22T10:28:47Z</time>
      </trkpt>
      <trkpt lat="43.79463" lon="5.32544">
        <ele>383.546509</ele>
        <time>2019-02-22T10:29:03Z</time>
      </trkpt>
      <trkpt lat="43.79465" lon="5.32522">
        <ele>386.39798</ele>
        <time>2019-02-22T10:29:18Z</time>
      </trkpt>
      <trkpt lat="43.79475" lon="5.32505">
        <ele>388.450684</ele>
        <time>2019-02-22T10:29:34Z</time>
      </trkpt>
      <trkpt lat="43.79488" lon="5.3249">
        <ele>389.115082</ele>
        <time>2019-02-22T10:29:49Z</time>
      </trkpt>
      <trkpt lat="43.79495" lon="5.32472">
        <ele>388.72821</ele>
        <time>2019-02-22T10:30:07Z</time>
      </trkpt>
      <trkpt lat="43.79501" lon="5.32451">
        <ele>388.206665</ele>
        <time>2019-02-22T10:30:22Z</time>
      </trkpt>
      <trkpt lat="43.79506" lon="5.32427">
        <ele>388.457947</ele>
        <time>2019-02-22T10:30:38Z</time>
      </trkpt>
      <trkpt lat="43.79505" lon="5.32408">
        <ele>389.041687</ele>
        <time>2019-02-22T10:30:53Z</time>
      </trkpt>
      <trkpt lat="43.79505" lon="5.32387">
        <ele>391.563354</ele>
        <time>2019-02-22T10:31:08Z</time>
      </trkpt>
      <trkpt lat="43.79502" lon="5.32367">
        <ele>393.335541</ele>
        <time>2019-02-22T10:31:46Z</time>
      </trkpt>
      <trkpt lat="43.79495" lon="5.32349">
        <ele>396.143616</ele>
        <time>2019-02-22T10:32:13Z</time>
      </trkpt>
      <trkpt lat="43.7949" lon="5.32331">
        <ele>399.679016</ele>
        <time>2019-02-22T10:32:32Z</time>
      </trkpt>
      <trkpt lat="43.79479" lon="5.32319">
        <ele>404.559021</ele>
        <time>2019-02-22T10:32:48Z</time>
      </trkpt>
      <trkpt lat="43.79471" lon="5.32303">
        <ele>408.668823</ele>
        <time>2019-02-22T10:33:04Z</time>
      </trkpt>
      <trkpt lat="43.79462" lon="5.32289">
        <ele>411.75174</ele>
        <time>2019-02-22T10:33:23Z</time>
      </trkpt>
      <trkpt lat="43.7946" lon="5.32269">
        <ele>414.847626</ele>
        <time>2019-02-22T10:33:44Z</time>
      </trkpt>
      <trkpt lat="43.79449" lon="5.32258">
        <ele>415.580536</ele>
        <time>2019-02-22T10:34:10Z</time>
      </trkpt>
      <trkpt lat="43.79447" lon="5.3224">
        <ele>417.840698</ele>
        <time>2019-02-22T10:34:39Z</time>
      </trkpt>
      <trkpt lat="43.79449" lon="5.32221">
        <ele>420.910095</ele>
        <time>2019-02-22T10:35:10Z</time>
      </trkpt>
      <trkpt lat="43.79451" lon="5.32202">
        <ele>423.987976</ele>
        <time>2019-02-22T10:35:40Z</time>
      </trkpt>
      <trkpt lat="43.79448" lon="5.32183">
        <ele>426.386108</ele>
        <time>2019-02-22T10:36:05Z</time>
      </trkpt>
      <trkpt lat="43.79449" lon="5.32163">
        <ele>429.509918</ele>
        <time>2019-02-22T10:36:38Z</time>
      </trkpt>
      <trkpt lat="43.79442" lon="5.32145">
        <ele>430.849121</ele>
        <time>2019-02-22T10:36:57Z</time>
      </trkpt>
      <trkpt lat="43.79435" lon="5.32129">
        <ele>431.123779</ele>
        <time>2019-02-22T10:37:26Z</time>
      </trkpt>
      <trkpt lat="43.79422" lon="5.32126">
        <ele>428.152771</ele>
        <time>2019-02-22T10:37:41Z</time>
      </trkpt>
      <trkpt lat="43.79412" lon="5.32112">
        <ele>429.656494</ele>
        <time>2019-02-22T10:38:00Z</time>
      </trkpt>
      <trkpt lat="43.79406" lon="5.32094">
        <ele>432.589417</ele>
        <time>2019-02-22T10:38:19Z</time>
      </trkpt>
      <trkpt lat="43.79395" lon="5.3208">
        <ele>436.601166</ele>
        <time>2019-02-22T10:38:34Z</time>
      </trkpt>
      <trkpt lat="43.79392" lon="5.32062">
        <ele>439.90741</ele>
        <time>2019-02-22T10:38:52Z</time>
      </trkpt>
      <trkpt lat="43.79385" lon="5.32046">
        <ele>443.442688</ele>
        <time>2019-02-22T10:39:10Z</time>
      </trkpt>
      <trkpt lat="43.79378" lon="5.32029">
        <ele>446.167694</ele>
        <time>2019-02-22T10:39:28Z</time>
      </trkpt>
      <trkpt lat="43.79373" lon="5.32012">
        <ele>448.195679</ele>
        <time>2019-02-22T10:39:45Z</time>
      </trkpt>
      <trkpt lat="43.79372" lon="5.31993">
        <ele>449.797882</ele>
        <time>2019-02-22T10:40:04Z</time>
      </trkpt>
      <trkpt lat="43.79373" lon="5.31973">
        <ele>451.671112</ele>
        <time>2019-02-22T10:40:24Z</time>
      </trkpt>
      <trkpt lat="43.79372" lon="5.31955">
        <ele>453.369019</ele>
        <time>2019-02-22T10:40:40Z</time>
      </trkpt>
      <trkpt lat="43.79372" lon="5.31934">
        <ele>455.313965</ele>
        <time>2019-02-22T10:41:03Z</time>
      </trkpt>
      <trkpt lat="43.79364" lon="5.31918">
        <ele>455.367493</ele>
        <time>2019-02-22T10:41:19Z</time>
      </trkpt>
      <trkpt lat="43.79354" lon="5.31906">
        <ele>455.464478</ele>
        <time>2019-02-22T10:41:39Z</time>
      </trkpt>
      <trkpt lat="43.79347" lon="5.31888">
        <ele>456.688721</ele>
        <time>2019-02-22T10:42:00Z</time>
      </trkpt>
      <trkpt lat="43.79337" lon="5.31876">
        <ele>456.205627</ele>
        <time>2019-02-22T10:42:20Z</time>
      </trkpt>
      <trkpt lat="43.79324" lon="5.31867">
        <ele>458.575012</ele>
        <time>2019-02-22T10:42:38Z</time>
      </trkpt>
      <trkpt lat="43.79315" lon="5.31853">
        <ele>461.472717</ele>
        <time>2019-02-22T10:42:53Z</time>
      </trkpt>
      <trkpt lat="43.79304" lon="5.31841">
        <ele>463.631836</ele>
        <time>2019-02-22T10:43:10Z</time>
      </trkpt>
      <trkpt lat="43.79293" lon="5.31829">
        <ele>465.484375</ele>
        <time>2019-02-22T10:43:30Z</time>
      </trkpt>
      <trkpt lat="43.79286" lon="5.31812">
        <ele>467.910431</ele>
        <time>2019-02-22T10:43:48Z</time>
      </trkpt>
      <trkpt lat="43.79279" lon="5.31796">
        <ele>469.457275</ele>
        <time>2019-02-22T10:44:09Z</time>
      </trkpt>
      <trkpt lat="43.79274" lon="5.31778">
        <ele>470.607391</ele>
        <time>2019-02-22T10:44:26Z</time>
      </trkpt>
      <trkpt lat="43.79275" lon="5.31758">
        <ele>472.176392</ele>
        <time>2019-02-22T10:44:48Z</time>
      </trkpt>
      <trkpt lat="43.79277" lon="5.31739">
        <ele>474.435059</ele>
        <time>2019-02-22T10:45:10Z</time>
      </trkpt>
      <trkpt lat="43.79277" lon="5.31719">
        <ele>476.783417</ele>
        <time>2019-02-22T10:45:26Z</time>
      </trkpt>
      <trkpt lat="43.79274" lon="5.31701">
        <ele>478.543762</ele>
        <time>2019-02-22T10:45:41Z</time>
      </trkpt>
      <trkpt lat="43.79272" lon="5.31682">
        <ele>480.584198</ele>
        <time>2019-02-22T10:45:58Z</time>
      </trkpt>
      <trkpt lat="43.79271" lon="5.31663">
        <ele>482.691223</ele>
        <time>2019-02-22T10:46:15Z</time>
      </trkpt>
      <trkpt lat="43.79273" lon="5.31643">
        <ele>484.947266</ele>
        <time>2019-02-22T10:46:30Z</time>
      </trkpt>
      <trkpt lat="43.7928" lon="5.31627">
        <ele>487.400208</ele>
        <time>2019-02-22T10:46:47Z</time>
      </trkpt>
      <trkpt lat="43.79284" lon="5.31609">
        <ele>489.446259</ele>
        <time>2019-02-22T10:47:04Z</time>
      </trkpt>
      <trkpt lat="43.79286" lon="5.31589">
        <ele>491.246124</ele>
        <time>2019-02-22T10:47:20Z</time>
      </trkpt>
      <trkpt lat="43.79287" lon="5.3157">
        <ele>492.699036</ele>
        <time>2019-02-22T10:47:38Z</time>
      </trkpt>
      <trkpt lat="43.79299" lon="5.31557">
        <ele>494.026825</ele>
        <time>2019-02-22T10:47:53Z</time>
      </trkpt>
      <trkpt lat="43.79302" lon="5.31539">
        <ele>495.38562</ele>
        <time>2019-02-22T10:48:09Z</time>
      </trkpt>
      <trkpt lat="43.79304" lon="5.31519">
        <ele>496.688416</ele>
        <time>2019-02-22T10:48:25Z</time>
      </trkpt>
      <trkpt lat="43.79299" lon="5.31501">
        <ele>497.669434</ele>
        <time>2019-02-22T10:48:42Z</time>
      </trkpt>
      <trkpt lat="43.79288" lon="5.31489">
        <ele>498.228119</ele>
        <time>2019-02-22T10:49:02Z</time>
      </trkpt>
      <trkpt lat="43.79276" lon="5.3148">
        <ele>498.377441</ele>
        <time>2019-02-22T10:49:19Z</time>
      </trkpt>
      <trkpt lat="43.79269" lon="5.31463">
        <ele>499.033478</ele>
        <time>2019-02-22T10:49:35Z</time>
      </trkpt>
      <trkpt lat="43.79259" lon="5.31449">
        <ele>499.161499</ele>
        <time>2019-02-22T10:49:54Z</time>
      </trkpt>
      <trkpt lat="43.79257" lon="5.31431">
        <ele>499.966705</ele>
        <time>2019-02-22T10:50:11Z</time>
      </trkpt>
      <trkpt lat="43.79251" lon="5.31414">
        <ele>500.511932</ele>
        <time>2019-02-22T10:50:28Z</time>
      </trkpt>
      <trkpt lat="43.79246" lon="5.31396">
        <ele>503.847656</ele>
        <time>2019-02-22T10:50:48Z</time>
      </trkpt>
      <trkpt lat="43.79244" lon="5.31377">
        <ele>506.64621</ele>
        <time>2019-02-22T10:51:09Z</time>
      </trkpt>
      <trkpt lat="43.7924" lon="5.31359">
        <ele>509.837524</ele>
        <time>2019-02-22T10:51:28Z</time>
      </trkpt>
      <trkpt lat="43.79233" lon="5.31341">
        <ele>513.386414</ele>
        <time>2019-02-22T10:51:46Z</time>
      </trkpt>
      <trkpt lat="43.79237" lon="5.31321">
        <ele>515.048523</ele>
        <time>2019-02-22T10:52:01Z</time>
      </trkpt>
      <trkpt lat="43.7925" lon="5.31331">
        <ele>511.488739</ele>
        <time>2019-02-22T10:52:45Z</time>
      </trkpt>
      <trkpt lat="43.79259" lon="5.31345">
        <ele>510.792572</ele>
        <time>2019-02-22T10:53:04Z</time>
      </trkpt>
      <trkpt lat="43.79269" lon="5.3136">
        <ele>510.143646</ele>
        <time>2019-02-22T10:53:20Z</time>
      </trkpt>
      <trkpt lat="43.79285" lon="5.31374">
        <ele>510.337036</ele>
        <time>2019-02-22T10:53:36Z</time>
      </trkpt>
      <trkpt lat="43.79296" lon="5.31389">
        <ele>509.294617</ele>
        <time>2019-02-22T10:53:52Z</time>
      </trkpt>
      <trkpt lat="43.79308" lon="5.31398">
        <ele>509.408936</ele>
        <time>2019-02-22T10:54:08Z</time>
      </trkpt>
      <trkpt lat="43.79317" lon="5.31415">
        <ele>507.526398</ele>
        <time>2019-02-22T10:54:23Z</time>
      </trkpt>
      <trkpt lat="43.79327" lon="5.31428">
        <ele>507.058258</ele>
        <time>2019-02-22T10:54:39Z</time>
      </trkpt>
      <trkpt lat="43.79339" lon="5.31438">
        <ele>506.489868</ele>
        <time>2019-02-22T10:54:54Z</time>
      </trkpt>
      <trkpt lat="43.79353" lon="5.31439">
        <ele>506.398895</ele>
        <time>2019-02-22T10:55:09Z</time>
      </trkpt>
      <trkpt lat="43.79362" lon="5.31425">
        <ele>508.101257</ele>
        <time>2019-02-22T10:55:25Z</time>
      </trkpt>
      <trkpt lat="43.7937" lon="5.31409">
        <ele>510.464844</ele>
        <time>2019-02-22T10:55:41Z</time>
      </trkpt>
      <trkpt lat="43.79377" lon="5.31392">
        <ele>513.562866</ele>
        <time>2019-02-22T10:56:00Z</time>
      </trkpt>
      <trkpt lat="43.79389" lon="5.31381">
        <ele>515.658325</ele>
        <time>2019-02-22T10:56:18Z</time>
      </trkpt>
      <trkpt lat="43.79398" lon="5.31367">
        <ele>518.455566</ele>
        <time>2019-02-22T10:56:34Z</time>
      </trkpt>
      <trkpt lat="43.79409" lon="5.31354">
        <ele>520.954102</ele>
        <time>2019-02-22T10:56:50Z</time>
      </trkpt>
      <trkpt lat="43.7942" lon="5.31343">
        <ele>523.039001</ele>
        <time>2019-02-22T10:57:06Z</time>
      </trkpt>
      <trkpt lat="43.79432" lon="5.31333">
        <ele>524.560913</ele>
        <time>2019-02-22T10:57:24Z</time>
      </trkpt>
      <trkpt lat="43.79444" lon="5.31326">
        <ele>525.097412</ele>
        <time>2019-02-22T10:57:42Z</time>
      </trkpt>
      <trkpt lat="43.79453" lon="5.31311">
        <ele>526.743835</ele>
        <time>2019-02-22T10:57:58Z</time>
      </trkpt>
      <trkpt lat="43.79469" lon="5.31306">
        <ele>526.834961</ele>
        <time>2019-02-22T10:58:14Z</time>
      </trkpt>
      <trkpt lat="43.79485" lon="5.31297">
        <ele>527.497437</ele>
        <time>2019-02-22T10:58:30Z</time>
      </trkpt>
      <trkpt lat="43.795" lon="5.31296">
        <ele>526.922546</ele>
        <time>2019-02-22T10:58:45Z</time>
      </trkpt>
      <trkpt lat="43.79501" lon="5.31277">
        <ele>529.408264</ele>
        <time>2019-02-22T10:59:03Z</time>
      </trkpt>
      <trkpt lat="43.79524" lon="5.31271">
        <ele>529.338745</ele>
        <time>2019-02-22T10:59:18Z</time>
      </trkpt>
      <trkpt lat="43.79536" lon="5.31259">
        <ele>530.238403</ele>
        <time>2019-02-22T10:59:36Z</time>
      </trkpt>
      <trkpt lat="43.79556" lon="5.31248">
        <ele>530.461426</ele>
        <time>2019-02-22T10:59:51Z</time>
      </trkpt>
      <trkpt lat="43.79552" lon="5.31228">
        <ele>532.160034</ele>
        <time>2019-02-22T11:00:07Z</time>
      </trkpt>
      <trkpt lat="43.79569" lon="5.3122">
        <ele>531.671082</ele>
        <time>2019-02-22T11:00:23Z</time>
      </trkpt>
      <trkpt lat="43.79555" lon="5.31215">
        <ele>532.896545</ele>
        <time>2019-02-22T11:00:58Z</time>
      </trkpt>
      <trkpt lat="43.79542" lon="5.31218">
        <ele>533.496643</ele>
        <time>2019-02-22T11:01:18Z</time>
      </trkpt>
      <trkpt lat="43.79528" lon="5.31224">
        <ele>533.814209</ele>
        <time>2019-02-22T11:02:02Z</time>
      </trkpt>
      <trkpt lat="43.79514" lon="5.31226">
        <ele>534.523438</ele>
        <time>2019-02-22T11:02:36Z</time>
      </trkpt>
      <trkpt lat="43.795" lon="5.31226">
        <ele>535.344238</ele>
        <time>2019-02-22T11:03:00Z</time>
      </trkpt>
      <trkpt lat="43.79483" lon="5.31228">
        <ele>536.006836</ele>
        <time>2019-02-22T11:03:15Z</time>
      </trkpt>
      <trkpt lat="43.79496" lon="5.31222">
        <ele>535.920166</ele>
        <time>2019-02-22T11:04:01Z</time>
      </trkpt>
      <trkpt lat="43.79522" lon="5.31224">
        <ele>534.142944</ele>
        <time>2019-02-22T11:04:17Z</time>
      </trkpt>
      <trkpt lat="43.79537" lon="5.3122">
        <ele>533.658813</ele>
        <time>2019-02-22T11:04:32Z</time>
      </trkpt>
      <trkpt lat="43.79554" lon="5.31212">
        <ele>533.137451</ele>
        <time>2019-02-22T11:04:48Z</time>
      </trkpt>
      <trkpt lat="43.79546" lon="5.31197">
        <ele>534.850342</ele>
        <time>2019-02-22T11:05:04Z</time>
      </trkpt>
      <trkpt lat="43.79532" lon="5.31184">
        <ele>536.836182</ele>
        <time>2019-02-22T11:05:20Z</time>
      </trkpt>
      <trkpt lat="43.79524" lon="5.31169">
        <ele>538.753906</ele>
        <time>2019-02-22T11:05:41Z</time>
      </trkpt>
      <trkpt lat="43.7953" lon="5.31148">
        <ele>540.018433</ele>
        <time>2019-02-22T11:05:56Z</time>
      </trkpt>
      <trkpt lat="43.79544" lon="5.31136">
        <ele>539.862</ele>
        <time>2019-02-22T11:06:12Z</time>
      </trkpt>
      <trkpt lat="43.79554" lon="5.31118">
        <ele>540.578918</ele>
        <time>2019-02-22T11:06:27Z</time>
      </trkpt>
      <trkpt lat="43.79568" lon="5.31107">
        <ele>540.336243</ele>
        <time>2019-02-22T11:06:42Z</time>
      </trkpt>
      <trkpt lat="43.79581" lon="5.311">
        <ele>539.750916</ele>
        <time>2019-02-22T11:06:57Z</time>
      </trkpt>
      <trkpt lat="43.7959" lon="5.31081">
        <ele>540.710571</ele>
        <time>2019-02-22T11:07:12Z</time>
      </trkpt>
      <trkpt lat="43.79596" lon="5.31062">
        <ele>542.563477</ele>
        <time>2019-02-22T11:07:28Z</time>
      </trkpt>
      <trkpt lat="43.79606" lon="5.31048">
        <ele>543.502747</ele>
        <time>2019-02-22T11:07:44Z</time>
      </trkpt>
      <trkpt lat="43.79616" lon="5.31033">
        <ele>544.792236</ele>
        <time>2019-02-22T11:07:59Z</time>
      </trkpt>
      <trkpt lat="43.79629" lon="5.31014">
        <ele>546.412231</ele>
        <time>2019-02-22T11:08:15Z</time>
      </trkpt>
      <trkpt lat="43.79637" lon="5.30994">
        <ele>548.326965</ele>
        <time>2019-02-22T11:08:31Z</time>
      </trkpt>
      <trkpt lat="43.7964" lon="5.30967">
        <ele>550.615234</ele>
        <time>2019-02-22T11:08:47Z</time>
      </trkpt>
      <trkpt lat="43.79639" lon="5.30948">
        <ele>552.477295</ele>
        <time>2019-02-22T11:09:09Z</time>
      </trkpt>
      <trkpt lat="43.79656" lon="5.30917">
        <ele>554.470703</ele>
        <time>2019-02-22T11:09:24Z</time>
      </trkpt>
      <trkpt lat="43.79666" lon="5.30903">
        <ele>554.898071</ele>
        <time>2019-02-22T11:09:47Z</time>
      </trkpt>
      <trkpt lat="43.79677" lon="5.30885">
        <ele>554.706787</ele>
        <time>2019-02-22T11:10:02Z</time>
      </trkpt>
      <trkpt lat="43.79688" lon="5.30869">
        <ele>554.266541</ele>
        <time>2019-02-22T11:10:18Z</time>
      </trkpt>
      <trkpt lat="43.79696" lon="5.30849">
        <ele>554.398987</ele>
        <time>2019-02-22T11:10:34Z</time>
      </trkpt>
      <trkpt lat="43.79701" lon="5.30824">
        <ele>554.748718</ele>
        <time>2019-02-22T11:10:50Z</time>
      </trkpt>
      <trkpt lat="43.79696" lon="5.30801">
        <ele>556.01062</ele>
        <time>2019-02-22T11:11:06Z</time>
      </trkpt>
      <trkpt lat="43.7969" lon="5.30782">
        <ele>557.46759</ele>
        <time>2019-02-22T11:11:22Z</time>
      </trkpt>
      <trkpt lat="43.79686" lon="5.30763">
        <ele>558.624817</ele>
        <time>2019-02-22T11:11:37Z</time>
      </trkpt>
      <trkpt lat="43.79685" lon="5.30743">
        <ele>559.200867</ele>
        <time>2019-02-22T11:11:52Z</time>
      </trkpt>
      <trkpt lat="43.79684" lon="5.30715">
        <ele>559.47821</ele>
        <time>2019-02-22T11:12:08Z</time>
      </trkpt>
      <trkpt lat="43.79686" lon="5.30688">
        <ele>559.428955</ele>
        <time>2019-02-22T11:12:24Z</time>
      </trkpt>
      <trkpt lat="43.79685" lon="5.30665">
        <ele>559.696777</ele>
        <time>2019-02-22T11:12:39Z</time>
      </trkpt>
      <trkpt lat="43.79685" lon="5.30643">
        <ele>560.397766</ele>
        <time>2019-02-22T11:12:55Z</time>
      </trkpt>
      <trkpt lat="43.79696" lon="5.30631">
        <ele>560.408875</ele>
        <time>2019-02-22T11:13:10Z</time>
      </trkpt>
      <trkpt lat="43.79711" lon="5.3062">
        <ele>560.475708</ele>
        <time>2019-02-22T11:13:26Z</time>
      </trkpt>
      <trkpt lat="43.79723" lon="5.30607">
        <ele>561.027405</ele>
        <time>2019-02-22T11:13:41Z</time>
      </trkpt>
      <trkpt lat="43.79739" lon="5.30597">
        <ele>561.704224</ele>
        <time>2019-02-22T11:13:56Z</time>
      </trkpt>
      <trkpt lat="43.79753" lon="5.30581">
        <ele>562.835693</ele>
        <time>2019-02-22T11:14:11Z</time>
      </trkpt>
      <trkpt lat="43.7977" lon="5.3057">
        <ele>562.084534</ele>
        <time>2019-02-22T11:14:27Z</time>
      </trkpt>
      <trkpt lat="43.79786" lon="5.30558">
        <ele>561.594543</ele>
        <time>2019-02-22T11:14:42Z</time>
      </trkpt>
      <trkpt lat="43.79806" lon="5.30552">
        <ele>560.504456</ele>
        <time>2019-02-22T11:14:58Z</time>
      </trkpt>
      <trkpt lat="43.79823" lon="5.3055">
        <ele>559.419617</ele>
        <time>2019-02-22T11:15:14Z</time>
      </trkpt>
      <trkpt lat="43.7984" lon="5.30544">
        <ele>559.311279</ele>
        <time>2019-02-22T11:15:29Z</time>
      </trkpt>
      <trkpt lat="43.79853" lon="5.30542">
        <ele>559.670471</ele>
        <time>2019-02-22T11:15:52Z</time>
      </trkpt>
      <trkpt lat="43.79869" lon="5.30534">
        <ele>560.736206</ele>
        <time>2019-02-22T11:16:08Z</time>
      </trkpt>
      <trkpt lat="43.79884" lon="5.30531">
        <ele>561.287354</ele>
        <time>2019-02-22T11:16:24Z</time>
      </trkpt>
      <trkpt lat="43.79902" lon="5.30529">
        <ele>561.680481</ele>
        <time>2019-02-22T11:16:39Z</time>
      </trkpt>
      <trkpt lat="43.7992" lon="5.30518">
        <ele>562.917358</ele>
        <time>2019-02-22T11:16:55Z</time>
      </trkpt>
      <trkpt lat="43.79932" lon="5.30506">
        <ele>563.785645</ele>
        <time>2019-02-22T11:17:10Z</time>
      </trkpt>
      <trkpt lat="43.79935" lon="5.30487">
        <ele>565.594482</ele>
        <time>2019-02-22T11:17:32Z</time>
      </trkpt>
      <trkpt lat="43.79937" lon="5.30468">
        <ele>567.398743</ele>
        <time>2019-02-22T11:17:48Z</time>
      </trkpt>
      <trkpt lat="43.79941" lon="5.3045">
        <ele>569.088318</ele>
        <time>2019-02-22T11:18:11Z</time>
      </trkpt>
      <trkpt lat="43.79949" lon="5.30434">
        <ele>570.529297</ele>
        <time>2019-02-22T11:18:28Z</time>
      </trkpt>
      <trkpt lat="43.79954" lon="5.30415">
        <ele>572.087158</ele>
        <time>2019-02-22T11:19:02Z</time>
      </trkpt>
      <trkpt lat="43.79964" lon="5.30394">
        <ele>571.78186</ele>
        <time>2019-02-22T11:19:18Z</time>
      </trkpt>
      <trkpt lat="43.79971" lon="5.30371">
        <ele>571.672058</ele>
        <time>2019-02-22T11:19:33Z</time>
      </trkpt>
      <trkpt lat="43.79979" lon="5.30356">
        <ele>571.683167</ele>
        <time>2019-02-22T11:19:51Z</time>
      </trkpt>
      <trkpt lat="43.79989" lon="5.30339">
        <ele>571.825684</ele>
        <time>2019-02-22T11:20:07Z</time>
      </trkpt>
      <trkpt lat="43.80001" lon="5.30328">
        <ele>571.613892</ele>
        <time>2019-02-22T11:20:22Z</time>
      </trkpt>
      <trkpt lat="43.80017" lon="5.30322">
        <ele>571.961914</ele>
        <time>2019-02-22T11:20:38Z</time>
      </trkpt>
      <trkpt lat="43.80028" lon="5.30335">
        <ele>573.635681</ele>
        <time>2019-02-22T11:21:11Z</time>
      </trkpt>
      <trkpt lat="43.80041" lon="5.30328">
        <ele>573.906494</ele>
        <time>2019-02-22T11:21:39Z</time>
      </trkpt>
      <trkpt lat="43.80057" lon="5.30327">
        <ele>574.711914</ele>
        <time>2019-02-22T11:21:55Z</time>
      </trkpt>
      <trkpt lat="43.80034" lon="5.30317">
        <ele>572.419312</ele>
        <time>2019-02-22T11:22:12Z</time>
      </trkpt>
      <trkpt lat="43.80024" lon="5.30329">
        <ele>572.991821</ele>
        <time>2019-02-22T11:22:36Z</time>
      </trkpt>
      <trkpt lat="43.80031" lon="5.30308">
        <ele>571.398926</ele>
        <time>2019-02-22T11:22:51Z</time>
      </trkpt>
      <trkpt lat="43.8004" lon="5.30293">
        <ele>570.369568</ele>
        <time>2019-02-22T11:23:16Z</time>
      </trkpt>
      <trkpt lat="43.80029" lon="5.30283">
        <ele>568.858887</ele>
        <time>2019-02-22T11:24:26Z</time>
      </trkpt>
      <trkpt lat="43.80016" lon="5.30265">
        <ele>566.763245</ele>
        <time>2019-02-22T11:24:41Z</time>
      </trkpt>
      <trkpt lat="43.80002" lon="5.30252">
        <ele>565.19458</ele>
        <time>2019-02-22T11:24:57Z</time>
      </trkpt>
      <trkpt lat="43.80003" lon="5.30228">
        <ele>561.837463</ele>
        <time>2019-02-22T11:25:12Z</time>
      </trkpt>
      <trkpt lat="43.80013" lon="5.30213">
        <ele>559.842285</ele>
        <time>2019-02-22T11:25:58Z</time>
      </trkpt>
      <trkpt lat="43.80018" lon="5.30195">
        <ele>557.357483</ele>
        <time>2019-02-22T11:26:23Z</time>
      </trkpt>
      <trkpt lat="43.80028" lon="5.30182">
        <ele>555.539795</ele>
        <time>2019-02-22T11:26:42Z</time>
      </trkpt>
      <trkpt lat="43.80042" lon="5.30174">
        <ele>554.665344</ele>
        <time>2019-02-22T11:26:59Z</time>
      </trkpt>
      <trkpt lat="43.80054" lon="5.30166">
        <ele>553.546143</ele>
        <time>2019-02-22T11:27:44Z</time>
      </trkpt>
      <trkpt lat="43.80071" lon="5.30165">
        <ele>553.344482</ele>
        <time>2019-02-22T11:27:59Z</time>
      </trkpt>
      <trkpt lat="43.80085" lon="5.30158">
        <ele>551.630554</ele>
        <time>2019-02-22T11:28:14Z</time>
      </trkpt>
      <trkpt lat="43.80098" lon="5.30144">
        <ele>547.588135</ele>
        <time>2019-02-22T11:28:30Z</time>
      </trkpt>
      <trkpt lat="43.80113" lon="5.30138">
        <ele>545.602295</ele>
        <time>2019-02-22T11:28:46Z</time>
      </trkpt>
      <trkpt lat="43.80128" lon="5.30126">
        <ele>541.97345</ele>
        <time>2019-02-22T11:29:02Z</time>
      </trkpt>
      <trkpt lat="43.8014" lon="5.30113">
        <ele>537.906921</ele>
        <time>2019-02-22T11:29:17Z</time>
      </trkpt>
      <trkpt lat="43.80154" lon="5.30117">
        <ele>538.422241</ele>
        <time>2019-02-22T11:29:33Z</time>
      </trkpt>
      <trkpt lat="43.80174" lon="5.30113">
        <ele>536.88208</ele>
        <time>2019-02-22T11:29:49Z</time>
      </trkpt>
      <trkpt lat="43.80194" lon="5.30109">
        <ele>536.605225</ele>
        <time>2019-02-22T11:30:04Z</time>
      </trkpt>
      <trkpt lat="43.80211" lon="5.30116">
        <ele>538.677002</ele>
        <time>2019-02-22T11:30:20Z</time>
      </trkpt>
      <trkpt lat="43.80229" lon="5.30127">
        <ele>541.121094</ele>
        <time>2019-02-22T11:30:36Z</time>
      </trkpt>
      <trkpt lat="43.80247" lon="5.3013">
        <ele>541.775269</ele>
        <time>2019-02-22T11:30:52Z</time>
      </trkpt>
      <trkpt lat="43.80262" lon="5.30116">
        <ele>540.9021</ele>
        <time>2019-02-22T11:31:07Z</time>
      </trkpt>
      <trkpt lat="43.80268" lon="5.30096">
        <ele>538.004395</ele>
        <time>2019-02-22T11:31:23Z</time>
      </trkpt>
      <trkpt lat="43.80254" lon="5.30101">
        <ele>537.491821</ele>
        <time>2019-02-22T11:31:42Z</time>
      </trkpt>
      <trkpt lat="43.80235" lon="5.30105">
        <ele>537.068909</ele>
        <time>2019-02-22T11:31:58Z</time>
      </trkpt>
      <trkpt lat="43.80219" lon="5.30083">
        <ele>532.224976</ele>
        <time>2019-02-22T11:32:14Z</time>
      </trkpt>
      <trkpt lat="43.80206" lon="5.30066">
        <ele>532.86853</ele>
        <time>2019-02-22T11:32:30Z</time>
      </trkpt>
      <trkpt lat="43.8019" lon="5.30057">
        <ele>532.042114</ele>
        <time>2019-02-22T11:32:45Z</time>
      </trkpt>
      <trkpt lat="43.80169" lon="5.30057">
        <ele>529.862366</ele>
        <time>2019-02-22T11:33:00Z</time>
      </trkpt>
      <trkpt lat="43.80152" lon="5.3005">
        <ele>529.800659</ele>
        <time>2019-02-22T11:33:15Z</time>
      </trkpt>
      <trkpt lat="43.80132" lon="5.30042">
        <ele>529.58551</ele>
        <time>2019-02-22T11:33:31Z</time>
      </trkpt>
      <trkpt lat="43.80116" lon="5.30034">
        <ele>529.000061</ele>
        <time>2019-02-22T11:33:46Z</time>
      </trkpt>
      <trkpt lat="43.80097" lon="5.30028">
        <ele>528.132507</ele>
        <time>2019-02-22T11:34:01Z</time>
      </trkpt>
      <trkpt lat="43.80075" lon="5.30039">
        <ele>527.822021</ele>
        <time>2019-02-22T11:34:17Z</time>
      </trkpt>
      <trkpt lat="43.80053" lon="5.30038">
        <ele>525.058777</ele>
        <time>2019-02-22T11:34:33Z</time>
      </trkpt>
      <trkpt lat="43.80036" lon="5.30038">
        <ele>523.100464</ele>
        <time>2019-02-22T11:34:48Z</time>
      </trkpt>
      <trkpt lat="43.80018" lon="5.30022">
        <ele>517.499084</ele>
        <time>2019-02-22T11:35:04Z</time>
      </trkpt>
      <trkpt lat="43.80007" lon="5.30001">
        <ele>510.609436</ele>
        <time>2019-02-22T11:35:20Z</time>
      </trkpt>
      <trkpt lat="43.79995" lon="5.29986">
        <ele>510.64566</ele>
        <time>2019-02-22T11:35:35Z</time>
      </trkpt>
      <trkpt lat="43.79974" lon="5.29984">
        <ele>507.806763</ele>
        <time>2019-02-22T11:35:50Z</time>
      </trkpt>
      <trkpt lat="43.79956" lon="5.29976">
        <ele>505.944702</ele>
        <time>2019-02-22T11:36:05Z</time>
      </trkpt>
      <trkpt lat="43.79937" lon="5.29988">
        <ele>501.641083</ele>
        <time>2019-02-22T11:36:21Z</time>
      </trkpt>
      <trkpt lat="43.79919" lon="5.29994">
        <ele>498.660461</ele>
        <time>2019-02-22T11:36:36Z</time>
      </trkpt>
      <trkpt lat="43.79905" lon="5.30022">
        <ele>500.642944</ele>
        <time>2019-02-22T11:36:51Z</time>
      </trkpt>
      <trkpt lat="43.79888" lon="5.30034">
        <ele>501.329346</ele>
        <time>2019-02-22T11:37:07Z</time>
      </trkpt>
      <trkpt lat="43.79874" lon="5.30047">
        <ele>500.800171</ele>
        <time>2019-02-22T11:37:22Z</time>
      </trkpt>
      <trkpt lat="43.79873" lon="5.30067">
        <ele>500.174988</ele>
        <time>2019-02-22T11:38:10Z</time>
      </trkpt>
      <trkpt lat="43.79867" lon="5.30095">
        <ele>499.88855</ele>
        <time>2019-02-22T11:38:26Z</time>
      </trkpt>
      <trkpt lat="43.79855" lon="5.30106">
        <ele>498.400513</ele>
        <time>2019-02-22T11:38:52Z</time>
      </trkpt>
      <trkpt lat="43.79831" lon="5.30126">
        <ele>494.429962</ele>
        <time>2019-02-22T11:39:07Z</time>
      </trkpt>
      <trkpt lat="43.79818" lon="5.30135">
        <ele>494.038269</ele>
        <time>2019-02-22T11:39:23Z</time>
      </trkpt>
      <trkpt lat="43.79799" lon="5.30139">
        <ele>493.060059</ele>
        <time>2019-02-22T11:39:39Z</time>
      </trkpt>
      <trkpt lat="43.79778" lon="5.30135">
        <ele>491.893799</ele>
        <time>2019-02-22T11:39:54Z</time>
      </trkpt>
      <trkpt lat="43.79761" lon="5.30124">
        <ele>491.02243</ele>
        <time>2019-02-22T11:40:09Z</time>
      </trkpt>
      <trkpt lat="43.79745" lon="5.30123">
        <ele>489.91684</ele>
        <time>2019-02-22T11:40:24Z</time>
      </trkpt>
      <trkpt lat="43.79723" lon="5.30124">
        <ele>487.531494</ele>
        <time>2019-02-22T11:40:40Z</time>
      </trkpt>
      <trkpt lat="43.79702" lon="5.30127">
        <ele>485.578613</ele>
        <time>2019-02-22T11:40:56Z</time>
      </trkpt>
      <trkpt lat="43.79686" lon="5.30109">
        <ele>480.555634</ele>
        <time>2019-02-22T11:41:12Z</time>
      </trkpt>
      <trkpt lat="43.7968" lon="5.30083">
        <ele>474.20874</ele>
        <time>2019-02-22T11:41:27Z</time>
      </trkpt>
      <trkpt lat="43.79675" lon="5.30053">
        <ele>480.315247</ele>
        <time>2019-02-22T11:41:43Z</time>
      </trkpt>
      <trkpt lat="43.79663" lon="5.30042">
        <ele>480.17511</ele>
        <time>2019-02-22T11:42:02Z</time>
      </trkpt>
      <trkpt lat="43.79641" lon="5.30046">
        <ele>475.306</ele>
        <time>2019-02-22T11:42:17Z</time>
      </trkpt>
      <trkpt lat="43.79624" lon="5.30056">
        <ele>470.60614</ele>
        <time>2019-02-22T11:42:32Z</time>
      </trkpt>
      <trkpt lat="43.79611" lon="5.3006">
        <ele>467.908813</ele>
        <time>2019-02-22T11:42:56Z</time>
      </trkpt>
      <trkpt lat="43.79593" lon="5.30071">
        <ele>464.090942</ele>
        <time>2019-02-22T11:43:11Z</time>
      </trkpt>
      <trkpt lat="43.79583" lon="5.30085">
        <ele>462.356934</ele>
        <time>2019-02-22T11:43:34Z</time>
      </trkpt>
      <trkpt lat="43.79568" lon="5.30089">
        <ele>461.445465</ele>
        <time>2019-02-22T11:43:50Z</time>
      </trkpt>
      <trkpt lat="43.7955" lon="5.30106">
        <ele>463.602295</ele>
        <time>2019-02-22T11:44:05Z</time>
      </trkpt>
      <trkpt lat="43.79539" lon="5.3009">
        <ele>457.564758</ele>
        <time>2019-02-22T11:44:20Z</time>
      </trkpt>
      <trkpt lat="43.79533" lon="5.30069">
        <ele>456.252625</ele>
        <time>2019-02-22T11:44:36Z</time>
      </trkpt>
      <trkpt lat="43.79528" lon="5.30044">
        <ele>458.119446</ele>
        <time>2019-02-22T11:44:52Z</time>
      </trkpt>
      <trkpt lat="43.79514" lon="5.3004">
        <ele>456.884552</ele>
        <time>2019-02-22T11:45:09Z</time>
      </trkpt>
      <trkpt lat="43.79496" lon="5.30044">
        <ele>453.926605</ele>
        <time>2019-02-22T11:45:25Z</time>
      </trkpt>
      <trkpt lat="43.79488" lon="5.30064">
        <ele>449.268463</ele>
        <time>2019-02-22T11:45:40Z</time>
      </trkpt>
      <trkpt lat="43.79471" lon="5.30078">
        <ele>441.921753</ele>
        <time>2019-02-22T11:45:56Z</time>
      </trkpt>
      <trkpt lat="43.79457" lon="5.30073">
        <ele>438.999573</ele>
        <time>2019-02-22T11:46:11Z</time>
      </trkpt>
      <trkpt lat="43.79447" lon="5.30058">
        <ele>440.377502</ele>
        <time>2019-02-22T11:46:28Z</time>
      </trkpt>
      <trkpt lat="43.79439" lon="5.30041">
        <ele>443.545227</ele>
        <time>2019-02-22T11:46:43Z</time>
      </trkpt>
      <trkpt lat="43.79426" lon="5.30026">
        <ele>446.00647</ele>
        <time>2019-02-22T11:46:58Z</time>
      </trkpt>
      <trkpt lat="43.79408" lon="5.30028">
        <ele>444.60733</ele>
        <time>2019-02-22T11:47:14Z</time>
      </trkpt>
      <trkpt lat="43.7939" lon="5.30032">
        <ele>443.690979</ele>
        <time>2019-02-22T11:47:29Z</time>
      </trkpt>
      <trkpt lat="43.79376" lon="5.30034">
        <ele>443.631958</ele>
        <time>2019-02-22T11:47:54Z</time>
      </trkpt>
      <trkpt lat="43.79357" lon="5.30046">
        <ele>438.72937</ele>
        <time>2019-02-22T11:48:09Z</time>
      </trkpt>
      <trkpt lat="43.79344" lon="5.30053">
        <ele>435.81488</ele>
        <time>2019-02-22T11:48:31Z</time>
      </trkpt>
      <trkpt lat="43.79363" lon="5.30049">
        <ele>437.211609</ele>
        <time>2019-02-22T11:48:47Z</time>
      </trkpt>
      <trkpt lat="43.79377" lon="5.30045">
        <ele>438.60675</ele>
        <time>2019-02-22T11:49:05Z</time>
      </trkpt>
      <trkpt lat="43.79395" lon="5.30064">
        <ele>430.828735</ele>
        <time>2019-02-22T11:49:21Z</time>
      </trkpt>
      <trkpt lat="43.79409" lon="5.30064">
        <ele>430.896179</ele>
        <time>2019-02-22T11:49:37Z</time>
      </trkpt>
      <trkpt lat="43.79421" lon="5.30072">
        <ele>429.331146</ele>
        <time>2019-02-22T11:50:00Z</time>
      </trkpt>
      <trkpt lat="43.79436" lon="5.301">
        <ele>433.032043</ele>
        <time>2019-02-22T11:50:15Z</time>
      </trkpt>
      <trkpt lat="43.79423" lon="5.30091">
        <ele>427.21167</ele>
        <time>2019-02-22T11:50:43Z</time>
      </trkpt>
      <trkpt lat="43.79407" lon="5.30082">
        <ele>424.071899</ele>
        <time>2019-02-22T11:50:59Z</time>
      </trkpt>
      <trkpt lat="43.79397" lon="5.30096">
        <ele>424.055786</ele>
        <time>2019-02-22T11:51:17Z</time>
      </trkpt>
      <trkpt lat="43.79384" lon="5.30103">
        <ele>422.999573</ele>
        <time>2019-02-22T11:51:34Z</time>
      </trkpt>
      <trkpt lat="43.79366" lon="5.30116">
        <ele>420.163971</ele>
        <time>2019-02-22T11:51:50Z</time>
      </trkpt>
      <trkpt lat="43.79346" lon="5.30127">
        <ele>415.512146</ele>
        <time>2019-02-22T11:52:06Z</time>
      </trkpt>
      <trkpt lat="43.79326" lon="5.30139">
        <ele>409.61795</ele>
        <time>2019-02-22T11:52:22Z</time>
      </trkpt>
      <trkpt lat="43.79314" lon="5.30148">
        <ele>406.394775</ele>
        <time>2019-02-22T11:52:40Z</time>
      </trkpt>
      <trkpt lat="43.79301" lon="5.30164">
        <ele>401.837341</ele>
        <time>2019-02-22T11:52:55Z</time>
      </trkpt>
      <trkpt lat="43.79297" lon="5.30146">
        <ele>404.286713</ele>
        <time>2019-02-22T11:53:45Z</time>
      </trkpt>
      <trkpt lat="43.79284" lon="5.3016">
        <ele>400.140686</ele>
        <time>2019-02-22T11:54:00Z</time>
      </trkpt>
      <trkpt lat="43.79269" lon="5.30164">
        <ele>397.309784</ele>
        <time>2019-02-22T11:54:15Z</time>
      </trkpt>
      <trkpt lat="43.79254" lon="5.30161">
        <ele>395.50296</ele>
        <time>2019-02-22T11:54:30Z</time>
      </trkpt>
      <trkpt lat="43.79239" lon="5.30149">
        <ele>396.673859</ele>
        <time>2019-02-22T11:54:46Z</time>
      </trkpt>
      <trkpt lat="43.79225" lon="5.30142">
        <ele>396.957153</ele>
        <time>2019-02-22T11:55:01Z</time>
      </trkpt>
      <trkpt lat="43.79211" lon="5.30131">
        <ele>397.217041</ele>
        <time>2019-02-22T11:55:16Z</time>
      </trkpt>
      <trkpt lat="43.79192" lon="5.30122">
        <ele>396.158356</ele>
        <time>2019-02-22T11:55:31Z</time>
      </trkpt>
      <trkpt lat="43.79172" lon="5.30124">
        <ele>394.008575</ele>
        <time>2019-02-22T11:55:47Z</time>
      </trkpt>
      <trkpt lat="43.79156" lon="5.30116">
        <ele>393.020691</ele>
        <time>2019-02-22T11:56:02Z</time>
      </trkpt>
      <trkpt lat="43.79138" lon="5.3011">
        <ele>391.799622</ele>
        <time>2019-02-22T11:56:18Z</time>
      </trkpt>
      <trkpt lat="43.79122" lon="5.30109">
        <ele>390.665283</ele>
        <time>2019-02-22T11:56:33Z</time>
      </trkpt>
      <trkpt lat="43.79104" lon="5.30102">
        <ele>388.685425</ele>
        <time>2019-02-22T11:56:49Z</time>
      </trkpt>
      <trkpt lat="43.79084" lon="5.301">
        <ele>386.696259</ele>
        <time>2019-02-22T11:57:05Z</time>
      </trkpt>
      <trkpt lat="43.79067" lon="5.30105">
        <ele>386.724701</ele>
        <time>2019-02-22T11:57:21Z</time>
      </trkpt>
      <trkpt lat="43.79051" lon="5.30108">
        <ele>386.453094</ele>
        <time>2019-02-22T11:57:36Z</time>
      </trkpt>
      <trkpt lat="43.79035" lon="5.30107">
        <ele>385.75177</ele>
        <time>2019-02-22T11:57:52Z</time>
      </trkpt>
      <trkpt lat="43.79018" lon="5.30098">
        <ele>383.521667</ele>
        <time>2019-02-22T11:58:08Z</time>
      </trkpt>
      <trkpt lat="43.79001" lon="5.30093">
        <ele>381.71991</ele>
        <time>2019-02-22T11:58:23Z</time>
      </trkpt>
      <trkpt lat="43.78985" lon="5.30086">
        <ele>379.659027</ele>
        <time>2019-02-22T11:58:39Z</time>
      </trkpt>
      <trkpt lat="43.78972" lon="5.30078">
        <ele>379.642517</ele>
        <time>2019-02-22T11:58:56Z</time>
      </trkpt>
      <trkpt lat="43.78956" lon="5.30075">
        <ele>379.068237</ele>
        <time>2019-02-22T11:59:11Z</time>
      </trkpt>
      <trkpt lat="43.78943" lon="5.30066">
        <ele>379.694946</ele>
        <time>2019-02-22T11:59:56Z</time>
      </trkpt>
      <trkpt lat="43.78927" lon="5.30054">
        <ele>379.806702</ele>
        <time>2019-02-22T12:00:12Z</time>
      </trkpt>
      <trkpt lat="43.78906" lon="5.30051">
        <ele>378.690918</ele>
        <time>2019-02-22T12:00:27Z</time>
      </trkpt>
      <trkpt lat="43.78886" lon="5.30062">
        <ele>376.456757</ele>
        <time>2019-02-22T12:00:43Z</time>
      </trkpt>
      <trkpt lat="43.78871" lon="5.30079">
        <ele>372.470215</ele>
        <time>2019-02-22T12:00:59Z</time>
      </trkpt>
      <trkpt lat="43.78853" lon="5.30093">
        <ele>372.526642</ele>
        <time>2019-02-22T12:01:14Z</time>
      </trkpt>
      <trkpt lat="43.78837" lon="5.30098">
        <ele>371.750763</ele>
        <time>2019-02-22T12:01:30Z</time>
      </trkpt>
      <trkpt lat="43.78823" lon="5.30101">
        <ele>372.764099</ele>
        <time>2019-02-22T12:02:15Z</time>
      </trkpt>
      <trkpt lat="43.78809" lon="5.30107">
        <ele>374.249603</ele>
        <time>2019-02-22T12:03:04Z</time>
      </trkpt>
      <trkpt lat="43.7879" lon="5.30115">
        <ele>375.146423</ele>
        <time>2019-02-22T12:03:19Z</time>
      </trkpt>
      <trkpt lat="43.78775" lon="5.30128">
        <ele>374.305359</ele>
        <time>2019-02-22T12:03:35Z</time>
      </trkpt>
      <trkpt lat="43.78759" lon="5.30149">
        <ele>370.45047</ele>
        <time>2019-02-22T12:03:51Z</time>
      </trkpt>
      <trkpt lat="43.78749" lon="5.30169">
        <ele>366.411865</ele>
        <time>2019-02-22T12:04:06Z</time>
      </trkpt>
      <trkpt lat="43.78739" lon="5.30191">
        <ele>368.674591</ele>
        <time>2019-02-22T12:04:22Z</time>
      </trkpt>
      <trkpt lat="43.78728" lon="5.30211">
        <ele>369.377289</ele>
        <time>2019-02-22T12:04:37Z</time>
      </trkpt>
      <trkpt lat="43.78715" lon="5.3023">
        <ele>368.493805</ele>
        <time>2019-02-22T12:04:53Z</time>
      </trkpt>
      <trkpt lat="43.78699" lon="5.30241">
        <ele>366.240234</ele>
        <time>2019-02-22T12:05:08Z</time>
      </trkpt>
      <trkpt lat="43.78686" lon="5.3026">
        <ele>362.891327</ele>
        <time>2019-02-22T12:05:24Z</time>
      </trkpt>
      <trkpt lat="43.78673" lon="5.30277">
        <ele>359.76062</ele>
        <time>2019-02-22T12:05:39Z</time>
      </trkpt>
      <trkpt lat="43.7867" lon="5.30305">
        <ele>357.138428</ele>
        <time>2019-02-22T12:05:55Z</time>
      </trkpt>
      <trkpt lat="43.78676" lon="5.30328">
        <ele>356.579498</ele>
        <time>2019-02-22T12:06:10Z</time>
      </trkpt>
      <trkpt lat="43.78687" lon="5.30349">
        <ele>357.383423</ele>
        <time>2019-02-22T12:06:26Z</time>
      </trkpt>
      <trkpt lat="43.78694" lon="5.30374">
        <ele>357.322235</ele>
        <time>2019-02-22T12:06:42Z</time>
      </trkpt>
      <trkpt lat="43.78692" lon="5.30398">
        <ele>355.331543</ele>
        <time>2019-02-22T12:06:57Z</time>
      </trkpt>
      <trkpt lat="43.78682" lon="5.30422">
        <ele>352.05307</ele>
        <time>2019-02-22T12:07:13Z</time>
      </trkpt>
      <trkpt lat="43.78669" lon="5.30442">
        <ele>351.206116</ele>
        <time>2019-02-22T12:07:28Z</time>
      </trkpt>
      <trkpt lat="43.78653" lon="5.30452">
        <ele>351.30603</ele>
        <time>2019-02-22T12:07:44Z</time>
      </trkpt>
      <trkpt lat="43.78631" lon="5.30451">
        <ele>349.852966</ele>
        <time>2019-02-22T12:08:00Z</time>
      </trkpt>
      <trkpt lat="43.78615" lon="5.30448">
        <ele>348.843445</ele>
        <time>2019-02-22T12:08:15Z</time>
      </trkpt>
      <trkpt lat="43.78597" lon="5.30444">
        <ele>347.940002</ele>
        <time>2019-02-22T12:08:31Z</time>
      </trkpt>
      <trkpt lat="43.7858" lon="5.30445">
        <ele>347.538086</ele>
        <time>2019-02-22T12:08:47Z</time>
      </trkpt>
      <trkpt lat="43.78562" lon="5.3045">
        <ele>348.316925</ele>
        <time>2019-02-22T12:09:03Z</time>
      </trkpt>
      <trkpt lat="43.78545" lon="5.30464">
        <ele>347.472839</ele>
        <time>2019-02-22T12:09:18Z</time>
      </trkpt>
      <trkpt lat="43.78536" lon="5.30486">
        <ele>344.175598</ele>
        <time>2019-02-22T12:09:33Z</time>
      </trkpt>
      <trkpt lat="43.78526" lon="5.30507">
        <ele>341.121552</ele>
        <time>2019-02-22T12:09:49Z</time>
      </trkpt>
      <trkpt lat="43.78518" lon="5.30523">
        <ele>340.164856</ele>
        <time>2019-02-22T12:10:18Z</time>
      </trkpt>
      <trkpt lat="43.78507" lon="5.30535">
        <ele>338.85022</ele>
        <time>2019-02-22T12:10:41Z</time>
      </trkpt>
      <trkpt lat="43.78492" lon="5.30549">
        <ele>339.123016</ele>
        <time>2019-02-22T12:10:56Z</time>
      </trkpt>
      <trkpt lat="43.78476" lon="5.30561">
        <ele>340.039703</ele>
        <time>2019-02-22T12:11:11Z</time>
      </trkpt>
      <trkpt lat="43.78457" lon="5.30572">
        <ele>339.763977</ele>
        <time>2019-02-22T12:11:27Z</time>
      </trkpt>
      <trkpt lat="43.78444" lon="5.30597">
        <ele>339.813599</ele>
        <time>2019-02-22T12:11:43Z</time>
      </trkpt>
      <trkpt lat="43.78435" lon="5.30619">
        <ele>342.013916</ele>
        <time>2019-02-22T12:11:58Z</time>
      </trkpt>
      <trkpt lat="43.78423" lon="5.30634">
        <ele>341.573547</ele>
        <time>2019-02-22T12:12:13Z</time>
      </trkpt>
      <trkpt lat="43.78406" lon="5.30648">
        <ele>340.257751</ele>
        <time>2019-02-22T12:12:29Z</time>
      </trkpt>
      <trkpt lat="43.78392" lon="5.30651">
        <ele>338.83493</ele>
        <time>2019-02-22T12:12:46Z</time>
      </trkpt>
      <trkpt lat="43.78377" lon="5.30663">
        <ele>335.067139</ele>
        <time>2019-02-22T12:13:01Z</time>
      </trkpt>
      <trkpt lat="43.78359" lon="5.30675">
        <ele>331.923462</ele>
        <time>2019-02-22T12:13:16Z</time>
      </trkpt>
      <trkpt lat="43.78343" lon="5.30688">
        <ele>328.813293</ele>
        <time>2019-02-22T12:13:31Z</time>
      </trkpt>
      <trkpt lat="43.78326" lon="5.30706">
        <ele>326.55127</ele>
        <time>2019-02-22T12:13:47Z</time>
      </trkpt>
      <trkpt lat="43.7831" lon="5.30722">
        <ele>326.16333</ele>
        <time>2019-02-22T12:14:03Z</time>
      </trkpt>
      <trkpt lat="43.78299" lon="5.30742">
        <ele>323.403503</ele>
        <time>2019-02-22T12:14:18Z</time>
      </trkpt>
      <trkpt lat="43.78288" lon="5.30765">
        <ele>324.046082</ele>
        <time>2019-02-22T12:14:34Z</time>
      </trkpt>
      <trkpt lat="43.7828" lon="5.30781">
        <ele>326.241394</ele>
        <time>2019-02-22T12:14:51Z</time>
      </trkpt>
      <trkpt lat="43.7826" lon="5.30789">
        <ele>324.937042</ele>
        <time>2019-02-22T12:15:07Z</time>
      </trkpt>
      <trkpt lat="43.78234" lon="5.30789">
        <ele>324.676239</ele>
        <time>2019-02-22T12:15:23Z</time>
      </trkpt>
      <trkpt lat="43.78214" lon="5.30783">
        <ele>324.34491</ele>
        <time>2019-02-22T12:15:38Z</time>
      </trkpt>
      <trkpt lat="43.782" lon="5.30764">
        <ele>319.878632</ele>
        <time>2019-02-22T12:15:54Z</time>
      </trkpt>
      <trkpt lat="43.78184" lon="5.30753">
        <ele>316.338318</ele>
        <time>2019-02-22T12:16:09Z</time>
      </trkpt>
      <trkpt lat="43.78167" lon="5.30742">
        <ele>316.291138</ele>
        <time>2019-02-22T12:16:24Z</time>
      </trkpt>
      <trkpt lat="43.7815" lon="5.30734">
        <ele>317.485077</ele>
        <time>2019-02-22T12:16:40Z</time>
      </trkpt>
      <trkpt lat="43.78135" lon="5.30725">
        <ele>317.863617</ele>
        <time>2019-02-22T12:16:55Z</time>
      </trkpt>
      <trkpt lat="43.78119" lon="5.30718">
        <ele>317.151886</ele>
        <time>2019-02-22T12:17:10Z</time>
      </trkpt>
      <trkpt lat="43.78102" lon="5.30701">
        <ele>315.008026</ele>
        <time>2019-02-22T12:17:26Z</time>
      </trkpt>
      <trkpt lat="43.78087" lon="5.3069">
        <ele>311.729584</ele>
        <time>2019-02-22T12:17:41Z</time>
      </trkpt>
      <trkpt lat="43.78068" lon="5.30687">
        <ele>308.648224</ele>
        <time>2019-02-22T12:17:57Z</time>
      </trkpt>
      <trkpt lat="43.78055" lon="5.30684">
        <ele>306.525299</ele>
        <time>2019-02-22T12:18:14Z</time>
      </trkpt>
      <trkpt lat="43.78035" lon="5.30676">
        <ele>302.86557</ele>
        <time>2019-02-22T12:18:30Z</time>
      </trkpt>
      <trkpt lat="43.78016" lon="5.30668">
        <ele>299.279022</ele>
        <time>2019-02-22T12:18:46Z</time>
      </trkpt>
      <trkpt lat="43.78" lon="5.30656">
        <ele>299.60376</ele>
        <time>2019-02-22T12:19:02Z</time>
      </trkpt>
      <trkpt lat="43.77984" lon="5.30645">
        <ele>300.347076</ele>
        <time>2019-02-22T12:19:17Z</time>
      </trkpt>
      <trkpt lat="43.77967" lon="5.30634">
        <ele>300.273254</ele>
        <time>2019-02-22T12:19:33Z</time>
      </trkpt>
      <trkpt lat="43.77954" lon="5.30621">
        <ele>300.310852</ele>
        <time>2019-02-22T12:19:49Z</time>
      </trkpt>
      <trkpt lat="43.77936" lon="5.30611">
        <ele>298.522278</ele>
        <time>2019-02-22T12:20:04Z</time>
      </trkpt>
      <trkpt lat="43.77923" lon="5.30593">
        <ele>297.760315</ele>
        <time>2019-02-22T12:20:20Z</time>
      </trkpt>
      <trkpt lat="43.77909" lon="5.30587">
        <ele>295.785645</ele>
        <time>2019-02-22T12:20:36Z</time>
      </trkpt>
      <trkpt lat="43.77888" lon="5.30598">
        <ele>293.090851</ele>
        <time>2019-02-22T12:20:52Z</time>
      </trkpt>
      <trkpt lat="43.77869" lon="5.30604">
        <ele>291.418854</ele>
        <time>2019-02-22T12:21:07Z</time>
      </trkpt>
      <trkpt lat="43.77856" lon="5.30623">
        <ele>290.903931</ele>
        <time>2019-02-22T12:21:23Z</time>
      </trkpt>
      <trkpt lat="43.77842" lon="5.30635">
        <ele>290.907776</ele>
        <time>2019-02-22T12:21:39Z</time>
      </trkpt>
      <trkpt lat="43.77831" lon="5.30646">
        <ele>291.631744</ele>
        <time>2019-02-22T12:22:19Z</time>
      </trkpt>
      <trkpt lat="43.77838" lon="5.30662">
        <ele>292.543335</ele>
        <time>2019-02-22T12:22:38Z</time>
      </trkpt>
      <trkpt lat="43.77848" lon="5.30687">
        <ele>295.443146</ele>
        <time>2019-02-22T12:22:54Z</time>
      </trkpt>
      <trkpt lat="43.77852" lon="5.30707">
        <ele>298.111816</ele>
        <time>2019-02-22T12:23:09Z</time>
      </trkpt>
      <trkpt lat="43.7786" lon="5.30724">
        <ele>299.724579</ele>
        <time>2019-02-22T12:23:24Z</time>
      </trkpt>
      <trkpt lat="43.77869" lon="5.30739">
        <ele>300.570709</ele>
        <time>2019-02-22T12:23:42Z</time>
      </trkpt>
      <trkpt lat="43.77873" lon="5.30759">
        <ele>302.404419</ele>
        <time>2019-02-22T12:23:58Z</time>
      </trkpt>
      <trkpt lat="43.77872" lon="5.30778">
        <ele>304.741302</ele>
        <time>2019-02-22T12:24:19Z</time>
      </trkpt>
      <trkpt lat="43.77878" lon="5.30794">
        <ele>305.539459</ele>
        <time>2019-02-22T12:24:36Z</time>
      </trkpt>
      <trkpt lat="43.77882" lon="5.30814">
        <ele>307.171631</ele>
        <time>2019-02-22T12:25:13Z</time>
      </trkpt>
      <trkpt lat="43.77895" lon="5.3084">
        <ele>307.641785</ele>
        <time>2019-02-22T12:25:28Z</time>
      </trkpt>
      <trkpt lat="43.779" lon="5.30857">
        <ele>308.16803</ele>
        <time>2019-02-22T12:25:44Z</time>
      </trkpt>
      <trkpt lat="43.77909" lon="5.30872">
        <ele>307.449402</ele>
        <time>2019-02-22T12:26:00Z</time>
      </trkpt>
      <trkpt lat="43.77914" lon="5.3089">
        <ele>307.767212</ele>
        <time>2019-02-22T12:26:19Z</time>
      </trkpt>
      <trkpt lat="43.77924" lon="5.30908">
        <ele>309.244019</ele>
        <time>2019-02-22T12:26:34Z</time>
      </trkpt>
      <trkpt lat="43.77929" lon="5.30928">
        <ele>311.602661</ele>
        <time>2019-02-22T12:26:50Z</time>
      </trkpt>
      <trkpt lat="43.77935" lon="5.30948">
        <ele>314.297058</ele>
        <time>2019-02-22T12:27:06Z</time>
      </trkpt>
      <trkpt lat="43.77949" lon="5.30968">
        <ele>316.500275</ele>
        <time>2019-02-22T12:27:21Z</time>
      </trkpt>
      <trkpt lat="43.77958" lon="5.30989">
        <ele>317.850952</ele>
        <time>2019-02-22T12:27:36Z</time>
      </trkpt>
      <trkpt lat="43.77963" lon="5.31007">
        <ele>318.999878</ele>
        <time>2019-02-22T12:27:52Z</time>
      </trkpt>
      <trkpt lat="43.77968" lon="5.31026">
        <ele>320.588623</ele>
        <time>2019-02-22T12:28:21Z</time>
      </trkpt>
      <trkpt lat="43.77976" lon="5.31041">
        <ele>321.161041</ele>
        <time>2019-02-22T12:29:36Z</time>
      </trkpt>
      <trkpt lat="43.77984" lon="5.31058">
        <ele>321.438232</ele>
        <time>2019-02-22T12:29:55Z</time>
      </trkpt>
      <trkpt lat="43.77997" lon="5.31078">
        <ele>320.375793</ele>
        <time>2019-02-22T12:30:10Z</time>
      </trkpt>
      <trkpt lat="43.78003" lon="5.31098">
        <ele>321.677094</ele>
        <time>2019-02-22T12:30:26Z</time>
      </trkpt>
      <trkpt lat="43.78003" lon="5.31117">
        <ele>323.118317</ele>
        <time>2019-02-22T12:30:58Z</time>
      </trkpt>
      <trkpt lat="43.78009" lon="5.31135">
        <ele>324.877411</ele>
        <time>2019-02-22T12:31:16Z</time>
      </trkpt>
      <trkpt lat="43.78013" lon="5.31153">
        <ele>326.104919</ele>
        <time>2019-02-22T12:31:33Z</time>
      </trkpt>
      <trkpt lat="43.78016" lon="5.31172">
        <ele>327.567841</ele>
        <time>2019-02-22T12:31:51Z</time>
      </trkpt>
      <trkpt lat="43.78022" lon="5.31189">
        <ele>329.717773</ele>
        <time>2019-02-22T12:32:09Z</time>
      </trkpt>
      <trkpt lat="43.78029" lon="5.31205">
        <ele>331.123047</ele>
        <time>2019-02-22T12:32:25Z</time>
      </trkpt>
      <trkpt lat="43.78036" lon="5.31222">
        <ele>332.250305</ele>
        <time>2019-02-22T12:32:40Z</time>
      </trkpt>
      <trkpt lat="43.78044" lon="5.31239">
        <ele>332.635529</ele>
        <time>2019-02-22T12:32:56Z</time>
      </trkpt>
      <trkpt lat="43.78053" lon="5.31254">
        <ele>332.349762</ele>
        <time>2019-02-22T12:33:11Z</time>
      </trkpt>
      <trkpt lat="43.78054" lon="5.31273">
        <ele>334.526245</ele>
        <time>2019-02-22T12:33:44Z</time>
      </trkpt>
      <trkpt lat="43.78055" lon="5.31292">
        <ele>336.529968</ele>
        <time>2019-02-22T12:34:07Z</time>
      </trkpt>
      <trkpt lat="43.78054" lon="5.31312">
        <ele>339.190765</ele>
        <time>2019-02-22T12:34:25Z</time>
      </trkpt>
      <trkpt lat="43.78048" lon="5.31331">
        <ele>342.793335</ele>
        <time>2019-02-22T12:34:41Z</time>
      </trkpt>
      <trkpt lat="43.78049" lon="5.3135">
        <ele>344.880829</ele>
        <time>2019-02-22T12:34:59Z</time>
      </trkpt>
      <trkpt lat="43.78051" lon="5.3137">
        <ele>347.132141</ele>
        <time>2019-02-22T12:35:19Z</time>
      </trkpt>
      <trkpt lat="43.78048" lon="5.31388">
        <ele>349.991272</ele>
        <time>2019-02-22T12:35:35Z</time>
      </trkpt>
      <trkpt lat="43.7804" lon="5.31404">
        <ele>352.715393</ele>
        <time>2019-02-22T12:36:04Z</time>
      </trkpt>
      <trkpt lat="43.78036" lon="5.31422">
        <ele>355.050537</ele>
        <time>2019-02-22T12:36:20Z</time>
      </trkpt>
      <trkpt lat="43.78033" lon="5.3144">
        <ele>357.436646</ele>
        <time>2019-02-22T12:36:35Z</time>
      </trkpt>
      <trkpt lat="43.78023" lon="5.31454">
        <ele>358.954773</ele>
        <time>2019-02-22T12:36:51Z</time>
      </trkpt>
      <trkpt lat="43.78013" lon="5.31468">
        <ele>359.972931</ele>
        <time>2019-02-22T12:37:11Z</time>
      </trkpt>
      <trkpt lat="43.78014" lon="5.31487">
        <ele>361.502502</ele>
        <time>2019-02-22T12:37:27Z</time>
      </trkpt>
      <trkpt lat="43.78005" lon="5.31502">
        <ele>361.813446</ele>
        <time>2019-02-22T12:37:47Z</time>
      </trkpt>
      <trkpt lat="43.78" lon="5.3152">
        <ele>363.329193</ele>
        <time>2019-02-22T12:38:06Z</time>
      </trkpt>
      <trkpt lat="43.78001" lon="5.31539">
        <ele>365.316681</ele>
        <time>2019-02-22T12:38:24Z</time>
      </trkpt>
      <trkpt lat="43.77999" lon="5.31558">
        <ele>367.779785</ele>
        <time>2019-02-22T12:38:43Z</time>
      </trkpt>
      <trkpt lat="43.78002" lon="5.31577">
        <ele>369.780121</ele>
        <time>2019-02-22T12:39:03Z</time>
      </trkpt>
      <trkpt lat="43.77998" lon="5.31595">
        <ele>373.298706</ele>
        <time>2019-02-22T12:39:25Z</time>
      </trkpt>
      <trkpt lat="43.7799" lon="5.31611">
        <ele>379.661011</ele>
        <time>2019-02-22T12:39:46Z</time>
      </trkpt>
      <trkpt lat="43.77984" lon="5.31628">
        <ele>385.337402</ele>
        <time>2019-02-22T12:40:27Z</time>
      </trkpt>
      <trkpt lat="43.77983" lon="5.31647">
        <ele>389.658844</ele>
        <time>2019-02-22T12:40:51Z</time>
      </trkpt>
      <trkpt lat="43.77984" lon="5.31666">
        <ele>393.393066</ele>
        <time>2019-02-22T12:42:01Z</time>
      </trkpt>
      <trkpt lat="43.77986" lon="5.31686">
        <ele>397.510803</ele>
        <time>2019-02-22T13:02:55Z</time>
      </trkpt>
      <trkpt lat="43.77983" lon="5.31704">
        <ele>402.981354</ele>
        <time>2019-02-22T13:03:22Z</time>
      </trkpt>
      <trkpt lat="43.77985" lon="5.31723">
        <ele>406.925262</ele>
        <time>2019-02-22T13:03:46Z</time>
      </trkpt>
      <trkpt lat="43.77982" lon="5.31742">
        <ele>412.173859</ele>
        <time>2019-02-22T13:04:15Z</time>
      </trkpt>
      <trkpt lat="43.7798" lon="5.3176">
        <ele>417.862457</ele>
        <time>2019-02-22T13:05:14Z</time>
      </trkpt>
      <trkpt lat="43.77985" lon="5.31779">
        <ele>421.087006</ele>
        <time>2019-02-22T13:05:44Z</time>
      </trkpt>
      <trkpt lat="43.77989" lon="5.31797">
        <ele>424.801727</ele>
        <time>2019-02-22T13:06:49Z</time>
      </trkpt>
      <trkpt lat="43.77988" lon="5.31818">
        <ele>430.915802</ele>
        <time>2019-02-22T13:07:04Z</time>
      </trkpt>
      <trkpt lat="43.77975" lon="5.31826">
        <ele>437.079651</ele>
        <time>2019-02-22T13:07:34Z</time>
      </trkpt>
      <trkpt lat="43.77969" lon="5.31842">
        <ele>443.420227</ele>
        <time>2019-02-22T13:08:23Z</time>
      </trkpt>
      <trkpt lat="43.77979" lon="5.31856">
        <ele>443.928192</ele>
        <time>2019-02-22T13:08:53Z</time>
      </trkpt>
      <trkpt lat="43.77979" lon="5.31875">
        <ele>448.884277</ele>
        <time>2019-02-22T13:09:33Z</time>
      </trkpt>
      <trkpt lat="43.77977" lon="5.31894">
        <ele>454.337097</ele>
        <time>2019-02-22T13:10:03Z</time>
      </trkpt>
      <trkpt lat="43.77979" lon="5.31914">
        <ele>458.942322</ele>
        <time>2019-02-22T13:10:41Z</time>
      </trkpt>
      <trkpt lat="43.77989" lon="5.31927">
        <ele>460.578247</ele>
        <time>2019-02-22T13:11:20Z</time>
      </trkpt>
      <trkpt lat="43.77989" lon="5.31946">
        <ele>466.057343</ele>
        <time>2019-02-22T13:11:53Z</time>
      </trkpt>
      <trkpt lat="43.77986" lon="5.31966">
        <ele>472.368652</ele>
        <time>2019-02-22T13:12:14Z</time>
      </trkpt>
      <trkpt lat="43.77989" lon="5.31984">
        <ele>477.196228</ele>
        <time>2019-02-22T13:13:03Z</time>
      </trkpt>
      <trkpt lat="43.77978" lon="5.31997">
        <ele>482.782288</ele>
        <time>2019-02-22T13:13:23Z</time>
      </trkpt>
      <trkpt lat="43.77979" lon="5.32017">
        <ele>489.315247</ele>
        <time>2019-02-22T13:13:50Z</time>
      </trkpt>
      <trkpt lat="43.7797" lon="5.32031">
        <ele>495.448792</ele>
        <time>2019-02-22T13:15:26Z</time>
      </trkpt>
      <trkpt lat="43.77979" lon="5.32047">
        <ele>499.704956</ele>
        <time>2019-02-22T13:15:41Z</time>
      </trkpt>
      <trkpt lat="43.77992" lon="5.32053">
        <ele>500.409363</ele>
        <time>2019-02-22T13:17:29Z</time>
      </trkpt>
      <trkpt lat="43.78002" lon="5.32066">
        <ele>504.55423</ele>
        <time>2019-02-22T13:18:19Z</time>
      </trkpt>
      <trkpt lat="43.78011" lon="5.3208">
        <ele>509.385986</ele>
        <time>2019-02-22T13:19:01Z</time>
      </trkpt>
      <trkpt lat="43.78025" lon="5.32084">
        <ele>510.048279</ele>
        <time>2019-02-22T13:19:26Z</time>
      </trkpt>
      <trkpt lat="43.78028" lon="5.32103">
        <ele>513.37207</ele>
        <time>2019-02-22T13:20:08Z</time>
      </trkpt>
      <trkpt lat="43.78041" lon="5.32108">
        <ele>512.674438</ele>
        <time>2019-02-22T13:21:03Z</time>
      </trkpt>
      <trkpt lat="43.78053" lon="5.32116">
        <ele>511.709015</ele>
        <time>2019-02-22T13:21:24Z</time>
      </trkpt>
      <trkpt lat="43.78046" lon="5.32132">
        <ele>514.976746</ele>
        <time>2019-02-22T13:21:55Z</time>
      </trkpt>
      <trkpt lat="43.78035" lon="5.32142">
        <ele>519.314941</ele>
        <time>2019-02-22T13:22:56Z</time>
      </trkpt>
      <trkpt lat="43.78025" lon="5.32155">
        <ele>524.725342</ele>
        <time>2019-02-22T13:23:45Z</time>
      </trkpt>
      <trkpt lat="43.78021" lon="5.32174">
        <ele>529.514099</ele>
        <time>2019-02-22T13:24:29Z</time>
      </trkpt>
      <trkpt lat="43.78007" lon="5.32179">
        <ele>535.376953</ele>
        <time>2019-02-22T13:24:58Z</time>
      </trkpt>
      <trkpt lat="43.77997" lon="5.32191">
        <ele>540.374512</ele>
        <time>2019-02-22T13:25:48Z</time>
      </trkpt>
      <trkpt lat="43.77984" lon="5.32194">
        <ele>540.738708</ele>
        <time>2019-02-22T13:26:47Z</time>
      </trkpt>
      <trkpt lat="43.77972" lon="5.32203">
        <ele>541.919495</ele>
        <time>2019-02-22T13:27:15Z</time>
      </trkpt>
      <trkpt lat="43.77966" lon="5.32221">
        <ele>544.144836</ele>
        <time>2019-02-22T13:27:51Z</time>
      </trkpt>
      <trkpt lat="43.77966" lon="5.3224">
        <ele>546.748962</ele>
        <time>2019-02-22T13:28:10Z</time>
      </trkpt>
      <trkpt lat="43.77973" lon="5.32257">
        <ele>549.047974</ele>
        <time>2019-02-22T13:28:32Z</time>
      </trkpt>
      <trkpt lat="43.77981" lon="5.32275">
        <ele>550.85791</ele>
        <time>2019-02-22T13:28:47Z</time>
      </trkpt>
      <trkpt lat="43.77981" lon="5.32297">
        <ele>552.127686</ele>
        <time>2019-02-22T13:29:03Z</time>
      </trkpt>
      <trkpt lat="43.77988" lon="5.32317">
        <ele>554.73877</ele>
        <time>2019-02-22T13:29:19Z</time>
      </trkpt>
      <trkpt lat="43.77993" lon="5.32334">
        <ele>557.415955</ele>
        <time>2019-02-22T13:29:34Z</time>
      </trkpt>
      <trkpt lat="43.77997" lon="5.32355">
        <ele>559.809753</ele>
        <time>2019-02-22T13:29:50Z</time>
      </trkpt>
      <trkpt lat="43.78" lon="5.32373">
        <ele>561.777283</ele>
        <time>2019-02-22T13:30:05Z</time>
      </trkpt>
      <trkpt lat="43.78004" lon="5.32392">
        <ele>561.724976</ele>
        <time>2019-02-22T13:30:21Z</time>
      </trkpt>
      <trkpt lat="43.78007" lon="5.32411">
        <ele>562.26355</ele>
        <time>2019-02-22T13:30:40Z</time>
      </trkpt>
      <trkpt lat="43.78008" lon="5.3243">
        <ele>562.856201</ele>
        <time>2019-02-22T13:31:00Z</time>
      </trkpt>
      <trkpt lat="43.78009" lon="5.32449">
        <ele>563.106445</ele>
        <time>2019-02-22T13:31:16Z</time>
      </trkpt>
      <trkpt lat="43.78009" lon="5.32469">
        <ele>563.819763</ele>
        <time>2019-02-22T13:31:32Z</time>
      </trkpt>
      <trkpt lat="43.78015" lon="5.32488">
        <ele>563.17749</ele>
        <time>2019-02-22T13:31:48Z</time>
      </trkpt>
      <trkpt lat="43.78024" lon="5.32503">
        <ele>561.781006</ele>
        <time>2019-02-22T13:32:06Z</time>
      </trkpt>
      <trkpt lat="43.78032" lon="5.32522">
        <ele>560.413696</ele>
        <time>2019-02-22T13:32:21Z</time>
      </trkpt>
      <trkpt lat="43.78038" lon="5.32542">
        <ele>559.964661</ele>
        <time>2019-02-22T13:32:36Z</time>
      </trkpt>
      <trkpt lat="43.78046" lon="5.3256">
        <ele>559.881531</ele>
        <time>2019-02-22T13:32:52Z</time>
      </trkpt>
      <trkpt lat="43.78049" lon="5.32579">
        <ele>560.596741</ele>
        <time>2019-02-22T13:33:23Z</time>
      </trkpt>
      <trkpt lat="43.78057" lon="5.32595">
        <ele>559.373169</ele>
        <time>2019-02-22T13:33:39Z</time>
      </trkpt>
      <trkpt lat="43.78074" lon="5.32605">
        <ele>558.572937</ele>
        <time>2019-02-22T13:33:55Z</time>
      </trkpt>
      <trkpt lat="43.78079" lon="5.32623">
        <ele>557.392212</ele>
        <time>2019-02-22T13:34:12Z</time>
      </trkpt>
      <trkpt lat="43.7809" lon="5.32639">
        <ele>555.534424</ele>
        <time>2019-02-22T13:34:28Z</time>
      </trkpt>
      <trkpt lat="43.78098" lon="5.32654">
        <ele>553.772949</ele>
        <time>2019-02-22T13:34:44Z</time>
      </trkpt>
      <trkpt lat="43.78108" lon="5.32668">
        <ele>552.618652</ele>
        <time>2019-02-22T13:34:59Z</time>
      </trkpt>
      <trkpt lat="43.78117" lon="5.32683">
        <ele>551.541565</ele>
        <time>2019-02-22T13:35:14Z</time>
      </trkpt>
      <trkpt lat="43.78123" lon="5.32703">
        <ele>551.404663</ele>
        <time>2019-02-22T13:35:29Z</time>
      </trkpt>
      <trkpt lat="43.78132" lon="5.32721">
        <ele>552.13916</ele>
        <time>2019-02-22T13:35:44Z</time>
      </trkpt>
      <trkpt lat="43.78138" lon="5.32738">
        <ele>553.574402</ele>
        <time>2019-02-22T13:35:59Z</time>
      </trkpt>
      <trkpt lat="43.78147" lon="5.32753">
        <ele>555.733765</ele>
        <time>2019-02-22T13:36:17Z</time>
      </trkpt>
      <trkpt lat="43.78153" lon="5.32771">
        <ele>557.488647</ele>
        <time>2019-02-22T13:36:37Z</time>
      </trkpt>
      <trkpt lat="43.78169" lon="5.3278">
        <ele>560.742798</ele>
        <time>2019-02-22T13:36:53Z</time>
      </trkpt>
      <trkpt lat="43.78174" lon="5.32798">
        <ele>562.201172</ele>
        <time>2019-02-22T13:37:09Z</time>
      </trkpt>
      <trkpt lat="43.78184" lon="5.32815">
        <ele>564.376709</ele>
        <time>2019-02-22T13:37:24Z</time>
      </trkpt>
      <trkpt lat="43.78195" lon="5.3283">
        <ele>566.878479</ele>
        <time>2019-02-22T13:37:40Z</time>
      </trkpt>
      <trkpt lat="43.7821" lon="5.32831">
        <ele>569.150146</ele>
        <time>2019-02-22T13:37:56Z</time>
      </trkpt>
      <trkpt lat="43.78224" lon="5.32836">
        <ele>570.797058</ele>
        <time>2019-02-22T13:38:12Z</time>
      </trkpt>
      <trkpt lat="43.78233" lon="5.32851">
        <ele>569.85675</ele>
        <time>2019-02-22T13:38:28Z</time>
      </trkpt>
      <trkpt lat="43.78245" lon="5.32863">
        <ele>570.215149</ele>
        <time>2019-02-22T13:38:46Z</time>
      </trkpt>
      <trkpt lat="43.78244" lon="5.32882">
        <ele>567.568787</ele>
        <time>2019-02-22T13:39:03Z</time>
      </trkpt>
      <trkpt lat="43.78248" lon="5.32903">
        <ele>565.322144</ele>
        <time>2019-02-22T13:39:19Z</time>
      </trkpt>
      <trkpt lat="43.78249" lon="5.32923">
        <ele>562.300598</ele>
        <time>2019-02-22T13:39:35Z</time>
      </trkpt>
      <trkpt lat="43.78259" lon="5.3294">
        <ele>560.210693</ele>
        <time>2019-02-22T13:39:50Z</time>
      </trkpt>
      <trkpt lat="43.78269" lon="5.32957">
        <ele>557.804321</ele>
        <time>2019-02-22T13:40:06Z</time>
      </trkpt>
      <trkpt lat="43.78277" lon="5.32972">
        <ele>555.719482</ele>
        <time>2019-02-22T13:40:24Z</time>
      </trkpt>
      <trkpt lat="43.78286" lon="5.32987">
        <ele>553.912964</ele>
        <time>2019-02-22T13:40:40Z</time>
      </trkpt>
      <trkpt lat="43.78296" lon="5.33">
        <ele>552.976868</ele>
        <time>2019-02-22T13:40:57Z</time>
      </trkpt>
      <trkpt lat="43.78303" lon="5.33017">
        <ele>551.153809</ele>
        <time>2019-02-22T13:41:19Z</time>
      </trkpt>
      <trkpt lat="43.78308" lon="5.33035">
        <ele>548.656616</ele>
        <time>2019-02-22T13:41:42Z</time>
      </trkpt>
      <trkpt lat="43.78304" lon="5.33053">
        <ele>544.185852</ele>
        <time>2019-02-22T13:41:59Z</time>
      </trkpt>
      <trkpt lat="43.78304" lon="5.33073">
        <ele>540.085388</ele>
        <time>2019-02-22T13:42:21Z</time>
      </trkpt>
      <trkpt lat="43.78306" lon="5.33092">
        <ele>538.132202</ele>
        <time>2019-02-22T13:42:41Z</time>
      </trkpt>
      <trkpt lat="43.78306" lon="5.33111">
        <ele>536.643555</ele>
        <time>2019-02-22T13:42:59Z</time>
      </trkpt>
      <trkpt lat="43.78302" lon="5.3313">
        <ele>533.494446</ele>
        <time>2019-02-22T13:43:17Z</time>
      </trkpt>
      <trkpt lat="43.78295" lon="5.33147">
        <ele>529.530823</ele>
        <time>2019-02-22T13:43:39Z</time>
      </trkpt>
      <trkpt lat="43.78281" lon="5.33157">
        <ele>523.128967</ele>
        <time>2019-02-22T13:43:54Z</time>
      </trkpt>
      <trkpt lat="43.7827" lon="5.33169">
        <ele>518.029785</ele>
        <time>2019-02-22T13:44:13Z</time>
      </trkpt>
      <trkpt lat="43.78258" lon="5.33183">
        <ele>514.523987</ele>
        <time>2019-02-22T13:44:29Z</time>
      </trkpt>
      <trkpt lat="43.7825" lon="5.33199">
        <ele>513.099243</ele>
        <time>2019-02-22T13:45:03Z</time>
      </trkpt>
      <trkpt lat="43.78243" lon="5.33215">
        <ele>514.201477</ele>
        <time>2019-02-22T13:45:27Z</time>
      </trkpt>
      <trkpt lat="43.78229" lon="5.33211">
        <ele>512.922913</ele>
        <time>2019-02-22T13:45:57Z</time>
      </trkpt>
      <trkpt lat="43.78227" lon="5.33193">
        <ele>510.066315</ele>
        <time>2019-02-22T13:46:13Z</time>
      </trkpt>
      <trkpt lat="43.78221" lon="5.33168">
        <ele>505.656799</ele>
        <time>2019-02-22T13:46:29Z</time>
      </trkpt>
      <trkpt lat="43.77698" lon="5.33147">
        <ele>412.730408</ele>
        <time>2019-02-22T13:55:35Z</time>
      </trkpt>
      <trkpt lat="43.77683" lon="5.33167">
        <ele>405.325928</ele>
        <time>2019-02-22T13:55:51Z</time>
      </trkpt>
      <trkpt lat="43.77672" lon="5.33179">
        <ele>403.891571</ele>
        <time>2019-02-22T13:56:13Z</time>
      </trkpt>
      <trkpt lat="43.77664" lon="5.33194">
        <ele>402.355957</ele>
        <time>2019-02-22T13:56:30Z</time>
      </trkpt>
      <trkpt lat="43.77653" lon="5.33208">
        <ele>401.005707</ele>
        <time>2019-02-22T13:56:46Z</time>
      </trkpt>
      <trkpt lat="43.7764" lon="5.33218">
        <ele>399.065369</ele>
        <time>2019-02-22T13:57:01Z</time>
      </trkpt>
      <trkpt lat="43.77625" lon="5.33227">
        <ele>396.548309</ele>
        <time>2019-02-22T13:57:17Z</time>
      </trkpt>
      <trkpt lat="43.77614" lon="5.33243">
        <ele>392.323792</ele>
        <time>2019-02-22T13:57:33Z</time>
      </trkpt>
      <trkpt lat="43.77605" lon="5.33259">
        <ele>389.834686</ele>
        <time>2019-02-22T13:57:48Z</time>
      </trkpt>
      <trkpt lat="43.77593" lon="5.33271">
        <ele>388.189331</ele>
        <time>2019-02-22T13:58:03Z</time>
      </trkpt>
      <trkpt lat="43.77582" lon="5.33286">
        <ele>386.239288</ele>
        <time>2019-02-22T13:58:19Z</time>
      </trkpt>
      <trkpt lat="43.77568" lon="5.33298">
        <ele>384.299255</ele>
        <time>2019-02-22T13:58:34Z</time>
      </trkpt>
      <trkpt lat="43.77551" lon="5.333">
        <ele>381.562073</ele>
        <time>2019-02-22T13:58:50Z</time>
      </trkpt>
      <trkpt lat="43.77537" lon="5.33304">
        <ele>379.00647</ele>
        <time>2019-02-22T13:59:05Z</time>
      </trkpt>
      <trkpt lat="43.77521" lon="5.33304">
        <ele>376.390503</ele>
        <time>2019-02-22T13:59:21Z</time>
      </trkpt>
      <trkpt lat="43.77506" lon="5.33306">
        <ele>373.494873</ele>
        <time>2019-02-22T13:59:36Z</time>
      </trkpt>
      <trkpt lat="43.77493" lon="5.33314">
        <ele>370.394104</ele>
        <time>2019-02-22T13:59:53Z</time>
      </trkpt>
      <trkpt lat="43.77482" lon="5.33328">
        <ele>366.537659</ele>
        <time>2019-02-22T14:00:10Z</time>
      </trkpt>
      <trkpt lat="43.77468" lon="5.33338">
        <ele>363.775269</ele>
        <time>2019-02-22T14:00:25Z</time>
      </trkpt>
      <trkpt lat="43.77459" lon="5.33356">
        <ele>363.406586</ele>
        <time>2019-02-22T14:00:40Z</time>
      </trkpt>
      <trkpt lat="43.77445" lon="5.33369">
        <ele>361.484039</ele>
        <time>2019-02-22T14:00:56Z</time>
      </trkpt>
      <trkpt lat="43.77428" lon="5.33376">
        <ele>358.25293</ele>
        <time>2019-02-22T14:01:12Z</time>
      </trkpt>
      <trkpt lat="43.7741" lon="5.33372">
        <ele>355.466614</ele>
        <time>2019-02-22T14:01:28Z</time>
      </trkpt>
      <trkpt lat="43.77395" lon="5.33382">
        <ele>353.913483</ele>
        <time>2019-02-22T14:01:43Z</time>
      </trkpt>
      <trkpt lat="43.77382" lon="5.33392">
        <ele>352.033539</ele>
        <time>2019-02-22T14:01:59Z</time>
      </trkpt>
      <trkpt lat="43.77367" lon="5.33405">
        <ele>349.266418</ele>
        <time>2019-02-22T14:02:15Z</time>
      </trkpt>
      <trkpt lat="43.77353" lon="5.33408">
        <ele>347.065826</ele>
        <time>2019-02-22T14:02:30Z</time>
      </trkpt>
      <trkpt lat="43.77334" lon="5.33409">
        <ele>344.173584</ele>
        <time>2019-02-22T14:02:45Z</time>
      </trkpt>
      <trkpt lat="43.77316" lon="5.33412">
        <ele>341.92746</ele>
        <time>2019-02-22T14:03:01Z</time>
      </trkpt>
      <trkpt lat="43.77299" lon="5.33418">
        <ele>339.38031</ele>
        <time>2019-02-22T14:03:17Z</time>
      </trkpt>
      <trkpt lat="43.77283" lon="5.33422">
        <ele>338.152069</ele>
        <time>2019-02-22T14:03:32Z</time>
      </trkpt>
      <trkpt lat="43.77269" lon="5.33423">
        <ele>336.632172</ele>
        <time>2019-02-22T14:03:47Z</time>
      </trkpt>
      <trkpt lat="43.77253" lon="5.3343">
        <ele>335.408997</ele>
        <time>2019-02-22T14:04:02Z</time>
      </trkpt>
      <trkpt lat="43.77236" lon="5.33427">
        <ele>332.954041</ele>
        <time>2019-02-22T14:04:18Z</time>
      </trkpt>
      <trkpt lat="43.77219" lon="5.33423">
        <ele>330.324066</ele>
        <time>2019-02-22T14:04:34Z</time>
      </trkpt>
      <trkpt lat="43.77203" lon="5.33436">
        <ele>328.941711</ele>
        <time>2019-02-22T14:04:50Z</time>
      </trkpt>
      <trkpt lat="43.77186" lon="5.33444">
        <ele>327.013245</ele>
        <time>2019-02-22T14:05:05Z</time>
      </trkpt>
      <trkpt lat="43.77165" lon="5.3345">
        <ele>324.360352</ele>
        <time>2019-02-22T14:05:21Z</time>
      </trkpt>
      <trkpt lat="43.77151" lon="5.33459">
        <ele>322.28717</ele>
        <time>2019-02-22T14:05:37Z</time>
      </trkpt>
      <trkpt lat="43.7713" lon="5.3346">
        <ele>318.590515</ele>
        <time>2019-02-22T14:05:52Z</time>
      </trkpt>
      <trkpt lat="43.77109" lon="5.33443">
        <ele>314.373901</ele>
        <time>2019-02-22T14:06:08Z</time>
      </trkpt>
      <trkpt lat="43.77092" lon="5.33438">
        <ele>311.277466</ele>
        <time>2019-02-22T14:06:24Z</time>
      </trkpt>
      <trkpt lat="43.77073" lon="5.33428">
        <ele>307.294098</ele>
        <time>2019-02-22T14:06:40Z</time>
      </trkpt>
      <trkpt lat="43.77059" lon="5.3343">
        <ele>304.582886</ele>
        <time>2019-02-22T14:06:56Z</time>
      </trkpt>
      <trkpt lat="43.77043" lon="5.33425">
        <ele>301.405731</ele>
        <time>2019-02-22T14:07:11Z</time>
      </trkpt>
      <trkpt lat="43.77021" lon="5.33401">
        <ele>298.263611</ele>
        <time>2019-02-22T14:07:27Z</time>
      </trkpt>
      <trkpt lat="43.77015" lon="5.33422">
        <ele>295.917877</ele>
        <time>2019-02-22T14:07:45Z</time>
      </trkpt>
      <trkpt lat="43.77032" lon="5.33423">
        <ele>299.1745</ele>
        <time>2019-02-22T14:08:01Z</time>
      </trkpt>
      <trkpt lat="43.77019" lon="5.33428">
        <ele>296.527283</ele>
        <time>2019-02-22T14:08:17Z</time>
      </trkpt>
      <trkpt lat="43.7701" lon="5.33444">
        <ele>294.818787</ele>
        <time>2019-02-22T14:08:32Z</time>
      </trkpt>
      <trkpt lat="43.76998" lon="5.33469">
        <ele>292.282837</ele>
        <time>2019-02-22T14:08:48Z</time>
      </trkpt>
      <trkpt lat="43.7699" lon="5.3349">
        <ele>291.640198</ele>
        <time>2019-02-22T14:09:04Z</time>
      </trkpt>
      <trkpt lat="43.76985" lon="5.33516">
        <ele>290.6362</ele>
        <time>2019-02-22T14:09:19Z</time>
      </trkpt>
      <trkpt lat="43.76987" lon="5.3354">
        <ele>289.811523</ele>
        <time>2019-02-22T14:09:35Z</time>
      </trkpt>
      <trkpt lat="43.76983" lon="5.33565">
        <ele>288.49057</ele>
        <time>2019-02-22T14:09:51Z</time>
      </trkpt>
      <trkpt lat="43.7698" lon="5.3359">
        <ele>287.254761</ele>
        <time>2019-02-22T14:10:07Z</time>
      </trkpt>
      <trkpt lat="43.76984" lon="5.33616">
        <ele>286.302246</ele>
        <time>2019-02-22T14:10:22Z</time>
      </trkpt>
      <trkpt lat="43.76985" lon="5.33637">
        <ele>285.364258</ele>
        <time>2019-02-22T14:10:38Z</time>
      </trkpt>
      <trkpt lat="43.76979" lon="5.33664">
        <ele>283.63623</ele>
        <time>2019-02-22T14:10:53Z</time>
      </trkpt>
      <trkpt lat="43.76974" lon="5.33688">
        <ele>281.988373</ele>
        <time>2019-02-22T14:11:09Z</time>
      </trkpt>
      <trkpt lat="43.76971" lon="5.33716">
        <ele>280.3974</ele>
        <time>2019-02-22T14:11:24Z</time>
      </trkpt>
      <trkpt lat="43.76972" lon="5.33743">
        <ele>278.975647</ele>
        <time>2019-02-22T14:11:39Z</time>
      </trkpt>
      <trkpt lat="43.76964" lon="5.33767">
        <ele>276.614838</ele>
        <time>2019-02-22T14:11:55Z</time>
      </trkpt>
      <trkpt lat="43.76957" lon="5.33789">
        <ele>274.15097</ele>
        <time>2019-02-22T14:12:11Z</time>
      </trkpt>
      <trkpt lat="43.76961" lon="5.33817">
        <ele>271.627106</ele>
        <time>2019-02-22T14:12:27Z</time>
      </trkpt>
      <trkpt lat="43.76972" lon="5.3384">
        <ele>270.035492</ele>
        <time>2019-02-22T14:12:43Z</time>
      </trkpt>
      <trkpt lat="43.76984" lon="5.33859">
        <ele>269.811066</ele>
        <time>2019-02-22T14:12:58Z</time>
      </trkpt>
      <trkpt lat="43.76983" lon="5.33885">
        <ele>268.913788</ele>
        <time>2019-02-22T14:13:13Z</time>
      </trkpt>
      <trkpt lat="43.7698" lon="5.33908">
        <ele>267.879364</ele>
        <time>2019-02-22T14:13:29Z</time>
      </trkpt>
      <trkpt lat="43.76977" lon="5.33931">
        <ele>267.680664</ele>
        <time>2019-02-22T14:13:44Z</time>
      </trkpt>
      <trkpt lat="43.76976" lon="5.3396">
        <ele>268.648956</ele>
        <time>2019-02-22T14:14:00Z</time>
      </trkpt>
      <trkpt lat="43.76959" lon="5.33979">
        <ele>266.523193</ele>
        <time>2019-02-22T14:14:16Z</time>
      </trkpt>
      <trkpt lat="43.76941" lon="5.33987">
        <ele>263.883911</ele>
        <time>2019-02-22T14:14:31Z</time>
      </trkpt>
      <trkpt lat="43.76924" lon="5.34004">
        <ele>261.546021</ele>
        <time>2019-02-22T14:14:46Z</time>
      </trkpt>
      <trkpt lat="43.76907" lon="5.34025">
        <ele>261.380432</ele>
        <time>2019-02-22T14:15:02Z</time>
      </trkpt>
      <trkpt lat="43.76888" lon="5.34038">
        <ele>261.687073</ele>
        <time>2019-02-22T14:15:17Z</time>
      </trkpt>
      <trkpt lat="43.76875" lon="5.3404">
        <ele>261.313721</ele>
        <time>2019-02-22T14:15:33Z</time>
      </trkpt>
      <trkpt lat="43.76862" lon="5.34046">
        <ele>261.440094</ele>
        <time>2019-02-22T14:16:04Z</time>
      </trkpt>
      <trkpt lat="43.76846" lon="5.34058">
        <ele>261.957214</ele>
        <time>2019-02-22T14:16:20Z</time>
      </trkpt>
      <trkpt lat="43.76831" lon="5.3407">
        <ele>262.46994</ele>
        <time>2019-02-22T14:16:35Z</time>
      </trkpt>
      <trkpt lat="43.76817" lon="5.34085">
        <ele>261.975037</ele>
        <time>2019-02-22T14:16:50Z</time>
      </trkpt>
      <trkpt lat="43.76801" lon="5.34101">
        <ele>259.743774</ele>
        <time>2019-02-22T14:17:06Z</time>
      </trkpt>
      <trkpt lat="43.76786" lon="5.34111">
        <ele>257.845154</ele>
        <time>2019-02-22T14:17:22Z</time>
      </trkpt>
      <trkpt lat="43.76765" lon="5.3413">
        <ele>255.141724</ele>
        <time>2019-02-22T14:17:37Z</time>
      </trkpt>
      <trkpt lat="43.76744" lon="5.34154">
        <ele>252.483337</ele>
        <time>2019-02-22T14:17:52Z</time>
      </trkpt>
      <trkpt lat="43.76726" lon="5.34171">
        <ele>249.815842</ele>
        <time>2019-02-22T14:18:08Z</time>
      </trkpt>
      <trkpt lat="43.76708" lon="5.34184">
        <ele>246.69986</ele>
        <time>2019-02-22T14:18:23Z</time>
      </trkpt>
      <trkpt lat="43.76692" lon="5.34197">
        <ele>244.132385</ele>
        <time>2019-02-22T14:18:39Z</time>
      </trkpt>
      <trkpt lat="43.76679" lon="5.34207">
        <ele>242.278046</ele>
        <time>2019-02-22T14:19:37Z</time>
      </trkpt>
      <trkpt lat="43.7666" lon="5.34221">
        <ele>239.829651</ele>
        <time>2019-02-22T14:19:53Z</time>
      </trkpt>
      <trkpt lat="43.76643" lon="5.34238">
        <ele>237.621094</ele>
        <time>2019-02-22T14:20:08Z</time>
      </trkpt>
      <trkpt lat="43.76628" lon="5.34254">
        <ele>235.661942</ele>
        <time>2019-02-22T14:20:23Z</time>
      </trkpt>
      <trkpt lat="43.76636" lon="5.34276">
        <ele>235.65332</ele>
        <time>2019-02-22T14:20:39Z</time>
      </trkpt>
      <trkpt lat="43.76646" lon="5.34295">
        <ele>235.644531</ele>
        <time>2019-02-22T14:20:55Z</time>
      </trkpt>
      <trkpt lat="43.76664" lon="5.3431">
        <ele>235.970337</ele>
        <time>2019-02-22T14:21:10Z</time>
      </trkpt>
      <trkpt lat="43.76679" lon="5.34336">
        <ele>235.623535</ele>
        <time>2019-02-22T14:21:26Z</time>
      </trkpt>
      <trkpt lat="43.76694" lon="5.34355">
        <ele>235.62146</ele>
        <time>2019-02-22T14:21:41Z</time>
      </trkpt>
      <trkpt lat="43.76709" lon="5.34372">
        <ele>235.45108</ele>
        <time>2019-02-22T14:21:57Z</time>
      </trkpt>
      <trkpt lat="43.76722" lon="5.34397">
        <ele>234.498062</ele>
        <time>2019-02-22T14:22:13Z</time>
      </trkpt>
      <trkpt lat="43.76737" lon="5.34409">
        <ele>234.197983</ele>
        <time>2019-02-22T14:22:28Z</time>
      </trkpt>
      <trkpt lat="43.76752" lon="5.34429">
        <ele>234.291779</ele>
        <time>2019-02-22T14:22:44Z</time>
      </trkpt>
      <trkpt lat="43.76767" lon="5.34447">
        <ele>235.327087</ele>
        <time>2019-02-22T14:22:59Z</time>
      </trkpt>
      <trkpt lat="43.7678" lon="5.34466">
        <ele>235.852905</ele>
        <time>2019-02-22T14:23:15Z</time>
      </trkpt>
      <trkpt lat="43.76795" lon="5.34484">
        <ele>235.971527</ele>
        <time>2019-02-22T14:23:31Z</time>
      </trkpt>
      <trkpt lat="43.7681" lon="5.34499">
        <ele>235.753784</ele>
        <time>2019-02-22T14:23:46Z</time>
      </trkpt>
      <trkpt lat="43.7683" lon="5.34497">
        <ele>236.125702</ele>
        <time>2019-02-22T14:24:02Z</time>
      </trkpt>
      <trkpt lat="43.76853" lon="5.34507">
        <ele>235.376404</ele>
        <time>2019-02-22T14:24:17Z</time>
      </trkpt>
      <trkpt lat="43.76863" lon="5.34535">
        <ele>235.770767</ele>
        <time>2019-02-22T14:24:33Z</time>
      </trkpt>
      <trkpt lat="43.76874" lon="5.34561">
        <ele>235.537476</ele>
        <time>2019-02-22T14:24:49Z</time>
      </trkpt>
      <trkpt lat="43.7689" lon="5.34579">
        <ele>234.188171</ele>
        <time>2019-02-22T14:25:04Z</time>
      </trkpt>
      <trkpt lat="43.76896" lon="5.34606">
        <ele>232.756714</ele>
        <time>2019-02-22T14:25:20Z</time>
      </trkpt>
      <trkpt lat="43.76901" lon="5.34635">
        <ele>230.751373</ele>
        <time>2019-02-22T14:25:36Z</time>
      </trkpt>
      <trkpt lat="43.76909" lon="5.34666">
        <ele>227.800217</ele>
        <time>2019-02-22T14:25:51Z</time>
      </trkpt>
      <trkpt lat="43.76919" lon="5.3469">
        <ele>224.795609</ele>
        <time>2019-02-22T14:26:07Z</time>
      </trkpt>
      <trkpt lat="43.76931" lon="5.34707">
        <ele>224.791107</ele>
        <time>2019-02-22T14:26:23Z</time>
      </trkpt>
    </trkseg>
  </trk>
</gpx>